PORTS® Data Listing: 8770777 Manchester, TX

CO-OPS RAW PORTS DATA

************************      PRELIMINARY DATA      ************************** 

     THIS RAW DATA HAS NOT BEEN SUBJECT TO THE NATIONAL OCEAN SERVICE'S        
     QUALITY CONTROL OR QUALITY ASSURANCE PROCEDURES AND DOES NOT MEET         
     THE CRITERIA AND STANDARDS OF OFFICIAL NATIONAL OCEAN SERVICE             
     DATA.  IT IS RELEASED FOR LIMITED PUBLIC USE AS PRELIMINARY DATA TO       
     BE USED ONLY WITH APPROPRIATE CAUTION.                                    

************************      PRELIMINARY DATA      ************************** 


       CD   -   Calendar date
       T    -   Time
       TZ   -   Timezone
       PW   -   Predicted water level (feet above MLLW)
       OW   -   Observed water level (feet above MLLW)
       WS   -   Wind speed (knots)
       WD   -   Wind direction (degrees true)
       WG   -   Wind gust (knots)
       AT   -   Air temperature (degrees farenheit)
       WT   -   Water temperature (degrees farenheit)
       AP   -   Air pressure (millibars)
       SA   -   Salinty (PSU - Practical Salinity Units)
       SG   -   Specific gravity
       RH   -   Relative humidity
       AG   -   Air gap (feet)
       VI   -   Visibility (nautical miles)

       ** NOTE **
       A variable that has its data fields filled with "9"s, indicates that
       data was not collected for that sample period.
       **********


STATION NAME: Manchester (8770777)
****************************************************************************************************
    CD       T    TZ    PW     OW    WS   WD   WG    AT    WT    AP    SA    SG     RH    AG   VI
****************************************************************************************************
2019/11/15 01:24 CST    1.83   1.99    7  358   10  44.2  61.0 1027.1 -9.9 -9.999 -99.9 -99.99 -9.99
2019/11/15 01:30 CST    1.82   1.98    8    5   11  44.1  61.0 1027.1 -9.9 -9.999 -99.9 -99.99 -9.99
2019/11/15 01:36 CST    1.81   1.98    9    4   11  44.2  61.0 1027.2 -9.9 -9.999 -99.9 -99.99 -9.99
2019/11/15 01:42 CST    1.80   1.98    5    7    9  44.2  61.0 1027.3 -9.9 -9.999 -99.9 -99.99 -9.99
2019/11/15 01:48 CST    1.79   1.97    7  359   11  44.2  60.8 1027.3 -9.9 -9.999 -99.9 -99.99 -9.99
2019/11/15 01:54 CST    1.79   1.96    6    8   10  44.2  60.8 1027.3 -9.9 -9.999 -99.9 -99.99 -9.99
2019/11/15 02:00 CST    1.78   1.96    5    5    7  44.2  60.8 1027.2 -9.9 -9.999 -99.9 -99.99 -9.99
2019/11/15 02:06 CST    1.77   1.94    5   14    7  44.2  60.8 1027.1 -9.9 -9.999 -99.9 -99.99 -9.99
2019/11/15 02:12 CST    1.76   1.93    5    1    7  44.1  60.8 1027.2 -9.9 -9.999 -99.9 -99.99 -9.99
2019/11/15 02:18 CST    1.75   1.92    4   15    6  44.1  60.8 1027.2 -9.9 -9.999 -99.9 -99.99 -9.99
2019/11/15 02:24 CST    1.74   1.91    4    8    7  44.1  60.8 1027.1 -9.9 -9.999 -99.9 -99.99 -9.99
2019/11/15 02:30 CST    1.73   1.90    4    4    6  43.9  60.8 1027.2 -9.9 -9.999 -99.9 -99.99 -9.99
2019/11/15 02:36 CST    1.72   1.90    6  359    8  43.5  60.8 1027.2 -9.9 -9.999 -99.9 -99.99 -9.99
2019/11/15 02:42 CST    1.71   1.88    6  359    8  43.5  60.8 1027.2 -9.9 -9.999 -99.9 -99.99 -9.99
2019/11/15 02:48 CST    1.70   1.87    4  359    7  43.3  60.8 1027.2 -9.9 -9.999 -99.9 -99.99 -9.99
2019/11/15 02:54 CST    1.70   1.89    3  338    5  43.0  60.8 1027.2 -9.9 -9.999 -99.9 -99.99 -9.99
2019/11/15 03:00 CST    1.69   1.88    4  345    6  42.8  60.8 1027.2 -9.9 -9.999 -99.9 -99.99 -9.99
2019/11/15 03:06 CST    1.68   1.87    4  359    6  42.8  60.8 1027.2 -9.9 -9.999 -99.9 -99.99 -9.99
2019/11/15 03:12 CST    1.67   1.86    5    2    7  42.8  60.8 1027.1 -9.9 -9.999 -99.9 -99.99 -9.99
2019/11/15 03:18 CST    1.67   1.89    5   10    7  42.6  60.8 1027.0 -9.9 -9.999 -99.9 -99.99 -9.99
2019/11/15 03:24 CST    1.66   1.90    4   12    7  42.6  60.8 1027.0 -9.9 -9.999 -99.9 -99.99 -9.99
2019/11/15 03:30 CST    1.65   1.90    4    9    6  42.4  60.8 1027.1 -9.9 -9.999 -99.9 -99.99 -9.99
2019/11/15 03:36 CST    1.65   1.93    4  353    7  42.4  60.8 1027.2 -9.9 -9.999 -99.9 -99.99 -9.99
2019/11/15 03:42 CST    1.64   1.91    4    3    6  42.6  60.8 1027.2 -9.9 -9.999 -99.9 -99.99 -9.99
2019/11/15 03:48 CST    1.64   1.90    5    6    6  42.6  60.8 1027.3 -9.9 -9.999 -99.9 -99.99 -9.99
2019/11/15 03:54 CST    1.63   1.91    5    8    8  42.6  60.8 1027.3 -9.9 -9.999 -99.9 -99.99 -9.99
2019/11/15 04:00 CST    1.63   1.93    5    5    7  42.6  60.8 1027.3 -9.9 -9.999 -99.9 -99.99 -9.99
2019/11/15 04:06 CST    1.62   1.91    6    5    8  42.4  60.8 1027.5 -9.9 -9.999 -99.9 -99.99 -9.99
2019/11/15 04:12 CST    1.62   1.91    5    2    7  42.6  60.8 1027.6 -9.9 -9.999 -99.9 -99.99 -9.99
2019/11/15 04:18 CST    1.61   1.92    5    8    8  42.4  60.8 1027.7 -9.9 -9.999 -99.9 -99.99 -9.99
2019/11/15 04:24 CST    1.61   1.90    5    6    9  42.3  60.8 1027.7 -9.9 -9.999 -99.9 -99.99 -9.99
2019/11/15 04:30 CST    1.60   1.91    4    9    8  42.3  60.8 1027.8 -9.9 -9.999 -99.9 -99.99 -9.99
2019/11/15 04:36 CST    1.60   1.92    4    5    6  42.4  60.8 1027.9 -9.9 -9.999 -99.9 -99.99 -9.99
2019/11/15 04:42 CST    1.59   1.91    5  353    7  42.3  60.8 1028.0 -9.9 -9.999 -99.9 -99.99 -9.99
2019/11/15 04:48 CST    1.59   1.88    6  357    9  42.1  60.8 1028.0 -9.9 -9.999 -99.9 -99.99 -9.99
2019/11/15 04:54 CST    1.58   1.87    6    8    8  41.9  60.8 1028.0 -9.9 -9.999 -99.9 -99.99 -9.99
2019/11/15 05:00 CST    1.58   1.86    4  349    7  41.7  60.8 1028.0 -9.9 -9.999 -99.9 -99.99 -9.99
2019/11/15 05:06 CST    1.58   1.84    2  333    5  41.5  60.6 1028.1 -9.9 -9.999 -99.9 -99.99 -9.99
2019/11/15 05:12 CST    1.57   1.83    5  351    6  41.4  60.6 1028.1 -9.9 -9.999 -99.9 -99.99 -9.99
2019/11/15 05:18 CST    1.57   1.84    6  360    8  41.4  60.6 1028.1 -9.9 -9.999 -99.9 -99.99 -9.99
2019/11/15 05:24 CST    1.56   1.80    7    6   10  41.0  60.6 1028.1 -9.9 -9.999 -99.9 -99.99 -9.99
2019/11/15 05:30 CST    1.56   1.81    7    6   10  41.0  60.6 1028.2 -9.9 -9.999 -99.9 -99.99 -9.99
2019/11/15 05:36 CST    1.56   1.82    7   13   10  41.0  60.6 1028.3 -9.9 -9.999 -99.9 -99.99 -9.99
2019/11/15 05:42 CST    1.55   1.80    5    8   11  40.8  60.6 1028.3 -9.9 -9.999 -99.9 -99.99 -9.99
2019/11/15 05:48 CST    1.55   1.81    9    4   11  40.6  60.6 1028.3 -9.9 -9.999 -99.9 -99.99 -9.99
2019/11/15 05:54 CST    1.55   1.81    6   12   11  40.6  60.6 1028.4 -9.9 -9.999 -99.9 -99.99 -9.99
2019/11/15 06:00 CST    1.54   1.80    7    2   10  40.6  60.6 1028.5 -9.9 -9.999 -99.9 -99.99 -9.99
2019/11/15 06:06 CST    1.54   1.77    6   16    9  40.6  60.6 1028.5 -9.9 -9.999 -99.9 -99.99 -9.99
2019/11/15 06:12 CST    1.54   1.77    6   12    8  40.6  60.6 1028.5 -9.9 -9.999 -99.9 -99.99 -9.99
2019/11/15 06:18 CST    1.54   1.75    5   13    7  40.6  60.6 1028.5 -9.9 -9.999 -99.9 -99.99 -9.99
2019/11/15 06:24 CST    1.53   1.75    4   14    7  40.5  60.6 1028.6 -9.9 -9.999 -99.9 -99.99 -9.99
2019/11/15 06:30 CST    1.53   1.75    4  358    6  40.8  60.6 1028.5 -9.9 -9.999 -99.9 -99.99 -9.99
2019/11/15 06:36 CST    1.53   1.72    5   13    9  40.5  60.6 1028.5 -9.9 -9.999 -99.9 -99.99 -9.99
2019/11/15 06:42 CST    1.53   1.74    5   25    8  40.1  60.6 1028.5 -9.9 -9.999 -99.9 -99.99 -9.99
2019/11/15 06:48 CST    1.53   1.73    5   16    7  40.1  60.6 1028.5 -9.9 -9.999 -99.9 -99.99 -9.99
2019/11/15 06:54 CST    1.52   1.71    6    9    9  40.1  60.6 1028.6 -9.9 -9.999 -99.9 -99.99 -9.99
2019/11/15 07:00 CST    1.52   1.71    5   11    8  40.1  60.6 1028.6 -9.9 -9.999 -99.9 -99.99 -9.99
2019/11/15 07:06 CST    1.52   1.68    5   32    6  40.3  60.6 1028.7 -9.9 -9.999 -99.9 -99.99 -9.99
2019/11/15 07:12 CST    1.52   1.66    6    8    8  40.3  60.6 1028.8 -9.9 -9.999 -99.9 -99.99 -9.99
2019/11/15 07:18 CST    1.51   1.65    4    9    7  40.5  60.6 1028.8 -9.9 -9.999 -99.9 -99.99 -9.99
2019/11/15 07:24 CST    1.51   1.63    4   12    7  40.5  60.6 1028.8 -9.9 -9.999 -99.9 -99.99 -9.99
2019/11/15 07:30 CST    1.50   1.63    5   23    7  40.6  60.6 1028.8 -9.9 -9.999 -99.9 -99.99 -9.99
2019/11/15 07:36 CST    1.50   1.61    4   19    7  40.6  60.6 1028.8 -9.9 -9.999 -99.9 -99.99 -9.99
2019/11/15 07:42 CST    1.49   1.60    5   12    8  40.8  60.6 1028.9 -9.9 -9.999 -99.9 -99.99 -9.99
2019/11/15 07:48 CST    1.49   1.56    5   11    8  41.0  60.6 1029.0 -9.9 -9.999 -99.9 -99.99 -9.99
2019/11/15 07:54 CST    1.48   1.53    4    3    8  41.5  60.6 1029.0 -9.9 -9.999 -99.9 -99.99 -9.99
2019/11/15 08:00 CST    1.47   1.51    4  318    5  42.3  60.6 1029.1 -9.9 -9.999 -99.9 -99.99 -9.99
2019/11/15 08:06 CST    1.46   1.53    4  319    6  42.1  60.6 1029.2 -9.9 -9.999 -99.9 -99.99 -9.99
2019/11/15 08:12 CST    1.45   1.49    4  321    6  42.1  60.6 1029.2 -9.9 -9.999 -99.9 -99.99 -9.99
2019/11/15 08:18 CST    1.44   1.46    4  312    6  41.9  60.6 1029.4 -9.9 -9.999 -99.9 -99.99 -9.99
2019/11/15 08:24 CST    1.43   1.46    5  323    6  42.6  60.6 1029.4 -9.9 -9.999 -99.9 -99.99 -9.99
2019/11/15 08:30 CST    1.42   1.44    4  327    6  43.2  60.4 1029.4 -9.9 -9.999 -99.9 -99.99 -9.99
2019/11/15 08:36 CST    1.41   1.41    3  326    5  44.2  60.4 1029.4 -9.9 -9.999 -99.9 -99.99 -9.99
2019/11/15 08:42 CST    1.39   1.40    5  303    7  43.7  60.4 1029.4 -9.9 -9.999 -99.9 -99.99 -9.99
2019/11/15 08:48 CST    1.38   1.41    3  322    6  45.0  60.4 1029.3 -9.9 -9.999 -99.9 -99.99 -9.99
2019/11/15 08:54 CST    1.36   1.39    3  325    6  45.7  60.4 1029.3 -9.9 -9.999 -99.9 -99.99 -9.99
2019/11/15 09:00 CST    1.35   1.37    3  311    6  45.7  60.4 1029.2 -9.9 -9.999 -99.9 -99.99 -9.99
2019/11/15 09:06 CST    1.33   1.34    3  325    5  45.9  60.4 1029.2 -9.9 -9.999 -99.9 -99.99 -9.99
2019/11/15 09:12 CST    1.31   1.35    4    2    8  46.0  60.4 1029.2 -9.9 -9.999 -99.9 -99.99 -9.99
2019/11/15 09:18 CST    1.30   1.29    5   10    9  46.4  60.4 1029.2 -9.9 -9.999 -99.9 -99.99 -9.99
2019/11/15 09:24 CST    1.28   1.27    6    9    9  46.2  60.4 1029.2 -9.9 -9.999 -99.9 -99.99 -9.99
2019/11/15 09:30 CST    1.26   1.30    5  359   10  47.3  60.3 1029.2 -9.9 -9.999 -99.9 -99.99 -9.99
2019/11/15 09:36 CST    1.24   1.22    5   24    8  48.4  60.3 1029.2 -9.9 -9.999 -99.9 -99.99 -9.99
2019/11/15 09:42 CST    1.22   1.20    6    0    9  47.5  60.3 1029.1 -9.9 -9.999 -99.9 -99.99 -9.99
2019/11/15 09:48 CST    1.20   1.20    6    2    9  47.7  60.3 1029.0 -9.9 -9.999 -99.9 -99.99 -9.99
2019/11/15 09:54 CST    1.18   1.17    6   11    9  48.6  60.1 1029.0 -9.9 -9.999 -99.9 -99.99 -9.99
2019/11/15 10:00 CST    1.16   1.13    7    3   10  48.2  60.1 1029.0 -9.9 -9.999 -99.9 -99.99 -9.99
2019/11/15 10:06 CST    1.13   1.12    7    2   10  48.7  60.1 1028.9 -9.9 -9.999 -99.9 -99.99 -9.99
2019/11/15 10:12 CST    1.11   1.10    6  355    9  49.5  60.1 1028.8 -9.9 -9.999 -99.9 -99.99 -9.99
2019/11/15 10:18 CST    1.09   1.09    6   10    9  50.0  60.1 1028.8 -9.9 -9.999 -99.9 -99.99 -9.99
2019/11/15 10:24 CST    1.06   1.04    4   30    8  51.3  60.1 1028.7 -9.9 -9.999 -99.9 -99.99 -9.99
2019/11/15 10:30 CST    1.04   1.01    6   15    8  51.1  60.1 1028.7 -9.9 -9.999 -99.9 -99.99 -9.99
2019/11/15 10:36 CST    1.01   0.96    6    8    9  51.4  60.1 1028.5 -9.9 -9.999 -99.9 -99.99 -9.99
2019/11/15 10:42 CST    0.99   0.95    7    2    9  52.3  60.1 1028.5 -9.9 -9.999 -99.9 -99.99 -9.99
2019/11/15 10:48 CST    0.96   0.93    5   46    8  53.1  60.1 1028.5 -9.9 -9.999 -99.9 -99.99 -9.99
2019/11/15 10:54 CST    0.93   0.91    5  349    9  51.6  60.1 1028.5 -9.9 -9.999 -99.9 -99.99 -9.99
2019/11/15 11:00 CST    0.90   0.88    1  287    7  53.6  60.1 1028.4 -9.9 -9.999 -99.9 -99.99 -9.99
2019/11/15 11:06 CST    0.87   0.83    5    4    7  52.5  60.1 1028.4 -9.9 -9.999 -99.9 -99.99 -9.99
2019/11/15 11:12 CST    0.84   0.83    5   46    9  52.7  59.9 1028.3 -9.9 -9.999 -99.9 -99.99 -9.99
2019/11/15 11:18 CST    0.82   0.84    3    8    7  52.9  59.9 1028.2 -9.9 -9.999 -99.9 -99.99 -9.99
2019/11/15 11:24 CST    0.78   0.83    6  344    8  53.8  59.9 1028.1 -9.9 -9.999 -99.9 -99.99 -9.99
2019/11/15 11:30 CST    0.75   0.82    4   47    9  54.3  60.1 1028.1 -9.9 -9.999 -99.9 -99.99 -9.99
2019/11/15 11:36 CST    0.72   0.80    4  346    8  54.5  60.1 1028.0 -9.9 -9.999 -99.9 -99.99 -9.99
2019/11/15 11:42 CST    0.69   0.77    6   24    9  54.0  60.1 1028.0 -9.9 -9.999 -99.9 -99.99 -9.99
2019/11/15 11:48 CST    0.66   0.75    4    7    7  54.1  60.1 1027.9 -9.9 -9.999 -99.9 -99.99 -9.99
2019/11/15 11:54 CST    0.63   0.73    4   26    8  54.3  60.1 1027.8 -9.9 -9.999 -99.9 -99.99 -9.99
2019/11/15 12:00 CST    0.60   0.67    5    9    8  54.7  60.1 1027.6 -9.9 -9.999 -99.9 -99.99 -9.99
2019/11/15 12:06 CST    0.57   0.64    5   10    8  55.0  60.1 1027.5 -9.9 -9.999 -99.9 -99.99 -9.99
2019/11/15 12:12 CST    0.54   0.64    5   59    8  55.0  60.1 1027.4 -9.9 -9.999 -99.9 -99.99 -9.99
2019/11/15 12:18 CST    0.50   0.62    2   25    6  56.3  60.3 1027.4 -9.9 -9.999 -99.9 -99.99 -9.99
2019/11/15 12:24 CST    0.47   0.62    5   14    8  55.2  60.3 1027.3 -9.9 -9.999 -99.9 -99.99 -9.99
2019/11/15 12:30 CST    0.44   0.62    4  339    7  55.9  60.3 1027.1 -9.9 -9.999 -99.9 -99.99 -9.99
2019/11/15 12:36 CST    0.41   0.59    5  318    7  56.1  60.3 1027.0 -9.9 -9.999 -99.9 -99.99 -9.99
2019/11/15 12:42 CST    0.38   0.57    1    8    6  57.4  60.3 1026.9 -9.9 -9.999 -99.9 -99.99 -9.99
2019/11/15 12:48 CST    0.35   0.55    4  309    5  57.0  60.4 1026.8 -9.9 -9.999 -99.9 -99.99 -9.99
2019/11/15 12:54 CST    0.33   0.54    3  351    7  57.2  60.4 1026.6 -9.9 -9.999 -99.9 -99.99 -9.99
2019/11/15 13:00 CST    0.30   0.52    5  306    8  56.8  60.4 1026.5 -9.9 -9.999 -99.9 -99.99 -9.99
2019/11/15 13:06 CST    0.27   0.51    2  348    5  57.4  60.6 1026.4 -9.9 -9.999 -99.9 -99.99 -9.99
2019/11/15 13:12 CST    0.24   0.50    4  354    8  58.1  60.6 1026.3 -9.9 -9.999 -99.9 -99.99 -9.99
2019/11/15 13:18 CST    0.22   0.50    6   19   10  57.9  60.6 1026.1 -9.9 -9.999 -99.9 -99.99 -9.99
2019/11/15 13:24 CST    0.19   0.48    5  320    8  58.1  60.6 1026.0 -9.9 -9.999 -99.9 -99.99 -9.99
2019/11/15 13:30 CST    0.17   0.48    4   20    8  57.9  60.8 1025.9 -9.9 -9.999 -99.9 -99.99 -9.99
2019/11/15 13:36 CST    0.14   0.48    7   15   11  58.3  60.8 1025.8 -9.9 -9.999 -99.9 -99.99 -9.99
2019/11/15 13:42 CST    0.12   0.48    8    7   10  58.3  60.8 1025.7 -9.9 -9.999 -99.9 -99.99 -9.99
2019/11/15 13:48 CST    0.10   0.47    7   22    9  58.6  61.0 1025.6 -9.9 -9.999 -99.9 -99.99 -9.99
2019/11/15 13:54 CST    0.07   0.43    6  339   11  58.6  61.0 1025.6 -9.9 -9.999 -99.9 -99.99 -9.99
2019/11/15 14:00 CST    0.05   0.41    8    6   11  58.8  61.0 1025.5 -9.9 -9.999 -99.9 -99.99 -9.99
2019/11/15 14:06 CST    0.03   0.39    5  347    8  58.8  61.0 1025.4 -9.9 -9.999 -99.9 -99.99 -9.99
2019/11/15 14:12 CST    0.01   0.35    4    4    9  59.7  61.0 1025.4 -9.9 -9.999 -99.9 -99.99 -9.99
2019/11/15 14:18 CST   -0.01   0.35    5  346   13  58.8  61.0 1025.4 -9.9 -9.999 -99.9 -99.99 -9.99
2019/11/15 14:24 CST   -0.03   0.31    5  335    8  58.6  61.2 1025.3 -9.9 -9.999 -99.9 -99.99 -9.99
2019/11/15 14:30 CST   -0.04   0.26    3  336    4  59.4  61.2 1025.2 -9.9 -9.999 -99.9 -99.99 -9.99
2019/11/15 14:36 CST   -0.06   0.25    5  345    8  59.0  61.2 1025.2 -9.9 -9.999 -99.9 -99.99 -9.99
2019/11/15 14:42 CST   -0.07   0.23    4   31    8  59.0  61.2 1025.1 -9.9 -9.999 -99.9 -99.99 -9.99
2019/11/15 14:48 CST   -0.09   0.20    4  341   10  59.0  61.2 1025.1 -9.9 -9.999 -99.9 -99.99 -9.99
2019/11/15 14:54 CST   -0.10   0.19    5  354    9  59.0  61.2 1025.0 -9.9 -9.999 -99.9 -99.99 -9.99
2019/11/15 15:00 CST   -0.11   0.17    4  316    6  59.2  61.2 1025.1 -9.9 -9.999 -99.9 -99.99 -9.99
2019/11/15 15:06 CST   -0.12   0.14    5  355    6  59.4  61.2 1025.0 -9.9 -9.999 -99.9 -99.99 -9.99
2019/11/15 15:12 CST   -0.13   0.12    5  324    9  59.5  61.3 1025.0 -9.9 -9.999 -99.9 -99.99 -9.99
2019/11/15 15:18 CST   -0.14   0.10    4   40    7  59.4  61.3 1025.0 -9.9 -9.999 -99.9 -99.99 -9.99
2019/11/15 15:24 CST   -0.15   0.09    5  329    7  59.9  61.3 1024.9 -9.9 -9.999 -99.9 -99.99 -9.99
2019/11/15 15:30 CST   -0.15   0.08    4  323    6  60.1  61.3 1024.9 -9.9 -9.999 -99.9 -99.99 -9.99
2019/11/15 15:36 CST   -0.16   0.06    7   22    9  59.4  61.3 1024.9 -9.9 -9.999 -99.9 -99.99 -9.99
2019/11/15 15:42 CST   -0.16   0.05    5  340    9  59.5  61.3 1024.9 -9.9 -9.999 -99.9 -99.99 -9.99
2019/11/15 15:48 CST   -0.16   0.07    6    8   10  59.4  61.3 1024.9 -9.9 -9.999 -99.9 -99.99 -9.99
2019/11/15 15:54 CST   -0.16   0.06    4  353    7  59.4  61.3 1024.8 -9.9 -9.999 -99.9 -99.99 -9.99
2019/11/15 16:00 CST   -0.16   0.06    5  341    6  59.5  61.2 1024.8 -9.9 -9.999 -99.9 -99.99 -9.99
2019/11/15 16:06 CST   -0.16   0.05    5    9    7  59.9  61.2 1024.8 -9.9 -9.999 -99.9 -99.99 -9.99
2019/11/15 16:12 CST   -0.16   0.04    4  357    8  59.9  61.2 1024.8 -9.9 -9.999 -99.9 -99.99 -9.99
2019/11/15 16:18 CST   -0.15   0.04    7    1   10  59.9  61.2 1024.8 -9.9 -9.999 -99.9 -99.99 -9.99
2019/11/15 16:24 CST   -0.15   0.05    4  345    8  59.9  61.2 1024.8 -9.9 -9.999 -99.9 -99.99 -9.99
2019/11/15 16:30 CST   -0.14   0.06    4  357    8  59.7  61.2 1024.7 -9.9 -9.999 -99.9 -99.99 -9.99
2019/11/15 16:36 CST   -0.13   0.05    4  343    7  59.4  61.2 1024.8 -9.9 -9.999 -99.9 -99.99 -9.99
2019/11/15 16:42 CST   -0.12   0.03    4  330    6  59.2  61.2 1024.8 -9.9 -9.999 -99.9 -99.99 -9.99
2019/11/15 16:48 CST   -0.11   0.03    4  352    7  59.4  61.0 1024.7 -9.9 -9.999 -99.9 -99.99 -9.99
2019/11/15 16:54 CST   -0.10   0.04    3  340    7  59.0  61.0 1024.7 -9.9 -9.999 -99.9 -99.99 -9.99
2019/11/15 17:00 CST   -0.09   0.04    3  342    5  58.8  61.0 1024.7 -9.9 -9.999 -99.9 -99.99 -9.99
2019/11/15 17:06 CST   -0.08   0.06    3  334    6  58.3  61.0 1024.8 -9.9 -9.999 -99.9 -99.99 -9.99
2019/11/15 17:12 CST   -0.06   0.04    3  350    4  58.5  61.0 1024.8 -9.9 -9.999 -99.9 -99.99 -9.99
2019/11/15 17:18 CST   -0.05   0.04    4   19    5  58.5  61.0 1024.9 -9.9 -9.999 -99.9 -99.99 -9.99
2019/11/15 17:24 CST   -0.03   0.06    4   16    7  58.1  61.0 1024.8 -9.9 -9.999 -99.9 -99.99 -9.99
2019/11/15 17:30 CST   -0.01   0.08    4    5    5  58.1  61.0 1024.8 -9.9 -9.999 -99.9 -99.99 -9.99
2019/11/15 17:36 CST    0.01   0.09    3   15    4  57.6  60.8 1024.8 -9.9 -9.999 -99.9 -99.99 -9.99
2019/11/15 17:42 CST    0.03   0.12    4   23    5  57.4  60.8 1024.8 -9.9 -9.999 -99.9 -99.99 -9.99
2019/11/15 17:48 CST    0.05   0.14    4   19    5  56.8  60.8 1024.9 -9.9 -9.999 -99.9 -99.99 -9.99
2019/11/15 17:54 CST    0.07   0.15    4   34    6  56.8  60.8 1024.9 -9.9 -9.999 -99.9 -99.99 -9.99
2019/11/15 18:00 CST    0.10   0.16    3   49    5  56.3  60.8 1024.9 -9.9 -9.999 -99.9 -99.99 -9.99
2019/11/15 18:06 CST    0.13   0.20    3   54    4  55.9  60.8 1024.9 -9.9 -9.999 -99.9 -99.99 -9.99
2019/11/15 18:12 CST    0.15   0.21    2   49    5  55.6  60.8 1024.9 -9.9 -9.999 -99.9 -99.99 -9.99
2019/11/15 18:18 CST    0.18   0.24    3   45    4  55.0  60.8 1024.9 -9.9 -9.999 -99.9 -99.99 -9.99
2019/11/15 18:24 CST    0.21   0.27    2   53    4  55.2  60.6 1024.9 -9.9 -9.999 -99.9 -99.99 -9.99
2019/11/15 18:30 CST    0.24   0.30    3   15    4  55.0  60.6 1025.0 -9.9 -9.999 -99.9 -99.99 -9.99
2019/11/15 18:36 CST    0.27   0.33    2  360    3  54.5  60.6 1025.1 -9.9 -9.999 -99.9 -99.99 -9.99
2019/11/15 18:42 CST    0.31   0.35    2   13    2  54.3  60.6 1025.2 -9.9 -9.999 -99.9 -99.99 -9.99
2019/11/15 18:48 CST    0.34   0.39    2   11    3  54.1  60.6 1025.2 -9.9 -9.999 -99.9 -99.99 -9.99
2019/11/15 18:54 CST    0.38   0.40    2    4    2  53.8  60.6 1025.3 -9.9 -9.999 -99.9 -99.99 -9.99
2019/11/15 19:00 CST    0.41   0.48    1    8    2  53.6  60.6 1025.4 -9.9 -9.999 -99.9 -99.99 -9.99
2019/11/15 19:06 CST    0.45   0.53    2   25    3  53.8  60.6 1025.4 -9.9 -9.999 -99.9 -99.99 -9.99
2019/11/15 19:12 CST    0.49   0.55    2   27    3  53.8  60.6 1025.4 -9.9 -9.999 -99.9 -99.99 -9.99
2019/11/15 19:18 CST    0.53   0.60    2   43    3  53.6  60.6 1025.4 -9.9 -9.999 -99.9 -99.99 -9.99
2019/11/15 19:24 CST    0.57   0.61    2   14    3  53.6  60.6 1025.4 -9.9 -9.999 -99.9 -99.99 -9.99
2019/11/15 19:30 CST    0.61   0.65    2   25    3  53.2  60.6 1025.5 -9.9 -9.999 -99.9 -99.99 -9.99
2019/11/15 19:36 CST    0.65   0.67    2   38    3  53.1  60.4 1025.4 -9.9 -9.999 -99.9 -99.99 -9.99
2019/11/15 19:42 CST    0.69   0.73    3   48    3  52.7  60.4 1025.4 -9.9 -9.999 -99.9 -99.99 -9.99
2019/11/15 19:48 CST    0.73   0.78    2   47    3  52.7  60.4 1025.4 -9.9 -9.999 -99.9 -99.99 -9.99
2019/11/15 19:54 CST    0.77   0.81    1   41    2  52.5  60.4 1025.5 -9.9 -9.999 -99.9 -99.99 -9.99
2019/11/15 20:00 CST    0.81   0.87    1  352    1  52.5  60.4 1025.5 -9.9 -9.999 -99.9 -99.99 -9.99
2019/11/15 20:06 CST    0.85   0.92    1  356    1  52.5  60.4 1025.5 -9.9 -9.999 -99.9 -99.99 -9.99
2019/11/15 20:12 CST    0.90   0.97    1  349    1  52.3  60.4 1025.5 -9.9 -9.999 -99.9 -99.99 -9.99
2019/11/15 20:18 CST    0.94   1.01    1  340    2  52.2  60.4 1025.5 -9.9 -9.999 -99.9 -99.99 -9.99
2019/11/15 20:24 CST    0.98   1.04    2  337    2  51.8  60.4 1025.5 -9.9 -9.999 -99.9 -99.99 -9.99
2019/11/15 20:30 CST    1.02   1.10    1  347    2  51.8  60.3 1025.5 -9.9 -9.999 -99.9 -99.99 -9.99
2019/11/15 20:36 CST    1.06   1.13    2  310    2  50.9  60.3 1025.6 -9.9 -9.999 -99.9 -99.99 -9.99
2019/11/15 20:42 CST    1.10   1.14    2  297    3  50.7  60.3 1025.6 -9.9 -9.999 -99.9 -99.99 -9.99
2019/11/15 20:48 CST    1.14   1.19    2  300    2  50.2  60.3 1025.6 -9.9 -9.999 -99.9 -99.99 -9.99
2019/11/15 20:54 CST    1.18   1.22    2  328    2  50.4  60.3 1025.6 -9.9 -9.999 -99.9 -99.99 -9.99
2019/11/15 21:00 CST    1.21   1.27    2  311    2  50.2  60.3 1025.6 -9.9 -9.999 -99.9 -99.99 -9.99
2019/11/15 21:06 CST    1.25   1.32    2  301    2  50.4  60.1 1025.6 -9.9 -9.999 -99.9 -99.99 -9.99
2019/11/15 21:12 CST    1.29   1.35    2  306    2  50.2  60.1 1025.6 -9.9 -9.999 -99.9 -99.99 -9.99
2019/11/15 21:18 CST    1.32   1.39    1  311    2  49.8  60.1 1025.6 -9.9 -9.999 -99.9 -99.99 -9.99
2019/11/15 21:24 CST    1.36   1.44    2  304    2  49.8  60.1 1025.6 -9.9 -9.999 -99.9 -99.99 -9.99
2019/11/15 21:30 CST    1.39   1.46    2  314    2  49.6  60.1 1025.6 -9.9 -9.999 -99.9 -99.99 -9.99
2019/11/15 21:36 CST    1.43   1.50    2  316    2  49.8  60.1 1025.6 -9.9 -9.999 -99.9 -99.99 -9.99
2019/11/15 21:42 CST    1.46   1.53    2  309    2  49.6  60.1 1025.6 -9.9 -9.999 -99.9 -99.99 -9.99
2019/11/15 21:48 CST    1.49   1.58    2  314    2  49.1  60.1 1025.6 -9.9 -9.999 -99.9 -99.99 -9.99
2019/11/15 21:54 CST    1.52   1.59    2  347    2  49.3  60.1 1025.5 -9.9 -9.999 -99.9 -99.99 -9.99
2019/11/15 22:00 CST    1.55   1.63    2  350    3  49.6  60.1 1025.4 -9.9 -9.999 -99.9 -99.99 -9.99
2019/11/15 22:06 CST    1.58   1.68    1  320    2  49.1  60.1 1025.4 -9.9 -9.999 -99.9 -99.99 -9.99
2019/11/15 22:12 CST    1.61   1.70    1  319    1  48.7  60.1 1025.3 -9.9 -9.999 -99.9 -99.99 -9.99
2019/11/15 22:18 CST    1.64   1.73    1  325    2  48.6  60.1 1025.3 -9.9 -9.999 -99.9 -99.99 -9.99
2019/11/15 22:24 CST    1.67   1.77    1  322    2  48.2  60.3 1025.3 -9.9 -9.999 -99.9 -99.99 -9.99
2019/11/15 22:30 CST    1.69   1.78    2  336    2  48.4  60.3 1025.2 -9.9 -9.999 -99.9 -99.99 -9.99
2019/11/15 22:36 CST    1.72   1.78    1  321    2  48.2  60.3 1025.2 -9.9 -9.999 -99.9 -99.99 -9.99
2019/11/15 22:42 CST    1.74   1.80    1  313    2  48.0  60.3 1025.2 -9.9 -9.999 -99.9 -99.99 -9.99
2019/11/15 22:48 CST    1.76   1.82    1  316    2  47.8  60.3 1025.3 -9.9 -9.999 -99.9 -99.99 -9.99
2019/11/15 22:54 CST    1.78   1.82    1  298    2  48.2  60.3 1025.3 -9.9 -9.999 -99.9 -99.99 -9.99
2019/11/15 23:00 CST    1.80   1.85    1  294    2  48.4  60.3 1025.3 -9.9 -9.999 -99.9 -99.99 -9.99
2019/11/15 23:06 CST    1.82   1.86    2  294    2  48.0  60.3 1025.3 -9.9 -9.999 -99.9 -99.99 -9.99
2019/11/15 23:12 CST    1.84   1.88    2  298    2  47.8  60.3 1025.3 -9.9 -9.999 -99.9 -99.99 -9.99
2019/11/15 23:18 CST    1.85   1.87    2  301    2  47.8  60.3 1025.3 -9.9 -9.999 -99.9 -99.99 -9.99
2019/11/15 23:24 CST    1.86   1.90    1  350    2  47.8  60.3 1025.2 -9.9 -9.999 -99.9 -99.99 -9.99
2019/11/15 23:30 CST    1.88   1.89    1  349    2  48.0  60.3 1025.2 -9.9 -9.999 -99.9 -99.99 -9.99
2019/11/15 23:36 CST    1.89   1.90    1  323    1  47.5  60.3 1025.2 -9.9 -9.999 -99.9 -99.99 -9.99
2019/11/15 23:42 CST    1.90   1.91    0  324    1  47.3  60.3 1025.2 -9.9 -9.999 -99.9 -99.99 -9.99
2019/11/15 23:48 CST    1.91   1.89    1  316    2  47.5  60.3 1025.1 -9.9 -9.999 -99.9 -99.99 -9.99
2019/11/15 23:54 CST    1.91   1.88    1  324    2  47.1  60.3 1025.1 -9.9 -9.999 -99.9 -99.99 -9.99
2019/11/16 00:00 CST    1.92   1.88    1  324    2  46.8  60.3 1025.0 -9.9 -9.999 -99.9 -99.99 -9.99
2019/11/16 00:06 CST    1.92   1.88    1  313    2  46.8  60.3 1025.0 -9.9 -9.999 -99.9 -99.99 -9.99
2019/11/16 00:12 CST    1.93   1.88    1  309    2  46.9  60.3 1025.0 -9.9 -9.999 -99.9 -99.99 -9.99
2019/11/16 00:18 CST    1.93   1.88    1  321    2  46.8  60.3 1025.0 -9.9 -9.999 -99.9 -99.99 -9.99
2019/11/16 00:24 CST    1.93   1.88    1  306    2  46.6  60.3 1025.0 -9.9 -9.999 -99.9 -99.99 -9.99
2019/11/16 00:30 CST    1.93   1.87    1  295    2  46.8  60.3 1025.0 -9.9 -9.999 -99.9 -99.99 -9.99
2019/11/16 00:36 CST    1.93   1.86    2  313    2  46.8  60.3 1024.9 -9.9 -9.999 -99.9 -99.99 -9.99
2019/11/16 00:42 CST    1.93   1.87    2  306    2  46.4  60.3 1024.9 -9.9 -9.999 -99.9 -99.99 -9.99
2019/11/16 00:48 CST    1.93   1.87    2  295    2  46.2  60.3 1024.8 -9.9 -9.999 -99.9 -99.99 -9.99
2019/11/16 00:54 CST    1.93   1.85    1  296    2  46.0  60.3 1024.8 -9.9 -9.999 -99.9 -99.99 -9.99
2019/11/16 01:00 CST    1.93   1.85    2  351    2  46.0  60.3 1024.7 -9.9 -9.999 -99.9 -99.99 -9.99
2019/11/16 01:06 CST    1.92   1.86    1   10    2  46.2  60.3 1024.7 -9.9 -9.999 -99.9 -99.99 -9.99
2019/11/16 01:12 CST    1.92   1.86    1  326    2  45.7  60.3 1024.7 -9.9 -9.999 -99.9 -99.99 -9.99
2019/11/16 01:18 CST    1.92 -99.99    1  311    2  45.9  60.3 1024.7 -9.9 -9.999 -99.9 -99.99 -9.99
2019/11/16 01:24 CST    1.91   1.86    1  308    1  45.7  60.3 1024.7 -9.9 -9.999 -99.9 -99.99 -9.99
2019/11/16 01:30 CST    1.91   1.86    1  332    1  45.5  60.3 1024.6 -9.9 -9.999 -99.9 -99.99 -9.99
2019/11/16 01:36 CST    1.90   1.83    2  342    2  45.5  60.3 1024.5 -9.9 -9.999 -99.9 -99.99 -9.99
2019/11/16 01:42 CST    1.90   1.83    2  342    2  45.1  60.3 1024.4 -9.9 -9.999 -99.9 -99.99 -9.99
2019/11/16 01:48 CST    1.89   1.87    2  345    2  45.0  60.3 1024.3 -9.9 -9.999 -99.9 -99.99 -9.99
2019/11/16 01:54 CST    1.88   1.88    2  338    3  44.6  60.4 1024.3 -9.9 -9.999 -99.9 -99.99 -9.99
2019/11/16 02:00 CST    1.88   1.83    1  330    3  44.2  60.3 1024.2 -9.9 -9.999 -99.9 -99.99 -9.99
2019/11/16 02:06 CST    1.87   1.84    2  333    3  44.4  60.3 1024.1 -9.9 -9.999 -99.9 -99.99 -9.99
2019/11/16 02:12 CST    1.86   1.82    2  343    3  44.4  60.3 1024.0 -9.9 -9.999 -99.9 -99.99 -9.99
2019/11/16 02:18 CST    1.86   1.80    2  339    3  44.4  60.3 1024.0 -9.9 -9.999 -99.9 -99.99 -9.99
2019/11/16 02:24 CST    1.85   1.83    2  338    3  44.4  60.3 1023.9 -9.9 -9.999 -99.9 -99.99 -9.99
2019/11/16 02:30 CST    1.84   1.82    2  320    2  44.2  60.3 1023.9 -9.9 -9.999 -99.9 -99.99 -9.99
2019/11/16 02:36 CST    1.84   1.81    2  304    2  44.4  60.3 1023.9 -9.9 -9.999 -99.9 -99.99 -9.99
2019/11/16 02:42 CST    1.83   1.82    2  336    3  44.2  60.3 1023.9 -9.9 -9.999 -99.9 -99.99 -9.99
2019/11/16 02:48 CST    1.82   1.80    2  329    3  44.1  60.3 1023.8 -9.9 -9.999 -99.9 -99.99 -9.99
2019/11/16 02:54 CST    1.81   1.79    2  335    2  43.9  60.3 1023.7 -9.9 -9.999 -99.9 -99.99 -9.99
2019/11/16 03:00 CST    1.80   1.78    2  331    3  43.9  60.1 1023.7 -9.9 -9.999 -99.9 -99.99 -9.99
2019/11/16 03:06 CST    1.80   1.77    2  320    2  43.9  60.1 1023.8 -9.9 -9.999 -99.9 -99.99 -9.99
2019/11/16 03:12 CST    1.79   1.75    2  329    3  43.7  60.1 1023.8 -9.9 -9.999 -99.9 -99.99 -9.99
2019/11/16 03:18 CST    1.78   1.75    2  323    3  43.5  60.1 1023.7 -9.9 -9.999 -99.9 -99.99 -9.99
2019/11/16 03:24 CST    1.77   1.72    2  336    3  43.7  60.1 1023.7 -9.9 -9.999 -99.9 -99.99 -9.99
2019/11/16 03:30 CST    1.77   1.72    2  311    2  43.3  60.1 1023.8 -9.9 -9.999 -99.9 -99.99 -9.99
2019/11/16 03:36 CST    1.76   1.72    2  341    2  43.3  60.1 1023.8 -9.9 -9.999 -99.9 -99.99 -9.99
2019/11/16 03:42 CST    1.75   1.72    2  317    2  43.2  60.1 1023.9 -9.9 -9.999 -99.9 -99.99 -9.99
2019/11/16 03:48 CST    1.75   1.71    2  298    3  43.2  60.1 1024.0 -9.9 -9.999 -99.9 -99.99 -9.99
2019/11/16 03:54 CST    1.74   1.70    2  315    3  42.8  60.1 1024.0 -9.9 -9.999 -99.9 -99.99 -9.99
2019/11/16 04:00 CST    1.73   1.68    2  310    3  43.0  60.1 1024.1 -9.9 -9.999 -99.9 -99.99 -9.99
2019/11/16 04:06 CST    1.73   1.66    2  290    3  43.2  60.1 1024.2 -9.9 -9.999 -99.9 -99.99 -9.99
2019/11/16 04:12 CST    1.72   1.67    3  305    3  43.0  60.1 1024.2 -9.9 -9.999 -99.9 -99.99 -9.99
2019/11/16 04:18 CST    1.72   1.64    2  312    3  42.8  60.1 1024.1 -9.9 -9.999 -99.9 -99.99 -9.99
2019/11/16 04:24 CST    1.71   1.62    2  309    3  43.0  60.1 1024.1 -9.9 -9.999 -99.9 -99.99 -9.99
2019/11/16 04:30 CST    1.70   1.61    2  310    3  42.8  60.1 1024.1 -9.9 -9.999 -99.9 -99.99 -9.99
2019/11/16 04:36 CST    1.70   1.61    3  307    3  42.8  60.1 1024.2 -9.9 -9.999 -99.9 -99.99 -9.99
2019/11/16 04:42 CST    1.69   1.60    2  311    3  42.6  60.1 1024.2 -9.9 -9.999 -99.9 -99.99 -9.99
2019/11/16 04:48 CST    1.69   1.61    2  305    3  42.6  60.1 1024.2 -9.9 -9.999 -99.9 -99.99 -9.99
2019/11/16 04:54 CST    1.68   1.59    3  305    3  42.4  60.1 1024.2 -9.9 -9.999 -99.9 -99.99 -9.99
2019/11/16 05:00 CST    1.68   1.57    3  298    4  42.3  60.1 1024.3 -9.9 -9.999 -99.9 -99.99 -9.99
2019/11/16 05:06 CST    1.67   1.56    2  315    4  42.3  60.1 1024.3 -9.9 -9.999 -99.9 -99.99 -9.99
2019/11/16 05:12 CST    1.67   1.54    2  325    3  42.1  60.1 1024.3 -9.9 -9.999 -99.9 -99.99 -9.99
2019/11/16 05:18 CST    1.66   1.56    2  341    3  42.1  60.1 1024.3 -9.9 -9.999 -99.9 -99.99 -9.99
2019/11/16 05:24 CST    1.66   1.56    3   24    4  42.3  60.1 1024.3 -9.9 -9.999 -99.9 -99.99 -9.99
2019/11/16 05:30 CST    1.65   1.58    3   13    4  41.7  60.1 1024.3 -9.9 -9.999 -99.9 -99.99 -9.99
2019/11/16 05:36 CST    1.64   1.58    4   27    5  42.1  60.1 1024.3 -9.9 -9.999 -99.9 -99.99 -9.99
2019/11/16 05:42 CST    1.64   1.58    3   15    5  42.4  60.1 1024.4 -9.9 -9.999 -99.9 -99.99 -9.99
2019/11/16 05:48 CST    1.63   1.59    1   29    4  42.3  60.1 1024.5 -9.9 -9.999 -99.9 -99.99 -9.99
2019/11/16 05:54 CST    1.63   1.59    0   11    2  41.9  60.1 1024.6 -9.9 -9.999 -99.9 -99.99 -9.99
2019/11/16 06:00 CST    1.62   1.59    2   16    2  41.5  60.1 1024.5 -9.9 -9.999 -99.9 -99.99 -9.99
2019/11/16 06:06 CST    1.61   1.59    2   45    3  41.4  60.1 1024.5 -9.9 -9.999 -99.9 -99.99 -9.99
2019/11/16 06:12 CST    1.61   1.59    3   46    4  41.2  60.1 1024.5 -9.9 -9.999 -99.9 -99.99 -9.99
2019/11/16 06:18 CST    1.60   1.59    3   46    4  40.8  60.1 1024.4 -9.9 -9.999 -99.9 -99.99 -9.99
2019/11/16 06:24 CST    1.60   1.59    4   37    5  40.6  60.1 1024.5 -9.9 -9.999 -99.9 -99.99 -9.99
2019/11/16 06:30 CST    1.59   1.59    4   37    5  40.6  60.1 1024.5 -9.9 -9.999 -99.9 -99.99 -9.99
2019/11/16 06:36 CST    1.59   1.58    3   42    4  40.6  60.1 1024.5 -9.9 -9.999 -99.9 -99.99 -9.99
2019/11/16 06:42 CST    1.58   1.58    4   40    4  40.6  60.1 1024.6 -9.9 -9.999 -99.9 -99.99 -9.99
2019/11/16 06:48 CST    1.58   1.57    3   38    4  40.5  60.1 1024.6 -9.9 -9.999 -99.9 -99.99 -9.99
2019/11/16 06:54 CST    1.57   1.56    3   46    4  40.6  60.1 1024.5 -9.9 -9.999 -99.9 -99.99 -9.99
2019/11/16 07:00 CST    1.57   1.56    2   35    5  40.8  60.1 1024.6 -9.9 -9.999 -99.9 -99.99 -9.99
2019/11/16 07:06 CST    1.56   1.54    3   24    4  40.8  59.9 1024.7 -9.9 -9.999 -99.9 -99.99 -9.99
2019/11/16 07:12 CST    1.56   1.53    4   35    5  41.4  59.9 1024.7 -9.9 -9.999 -99.9 -99.99 -9.99
2019/11/16 07:18 CST    1.55   1.51    3   37    5  41.7  59.9 1024.8 -9.9 -9.999 -99.9 -99.99 -9.99
2019/11/16 07:24 CST    1.55   1.51    3   45    5  42.1  59.9 1024.9 -9.9 -9.999 -99.9 -99.99 -9.99
2019/11/16 07:30 CST    1.54   1.49    4   37    5  42.3  59.9 1024.9 -9.9 -9.999 -99.9 -99.99 -9.99
2019/11/16 07:36 CST    1.54   1.47    4   48    5  42.8  59.9 1024.9 -9.9 -9.999 -99.9 -99.99 -9.99
2019/11/16 07:42 CST    1.53   1.48    4   43    6  43.0  59.9 1025.0 -9.9 -9.999 -99.9 -99.99 -9.99
2019/11/16 07:48 CST    1.53   1.46    4   47    5  43.5  59.9 1025.1 -9.9 -9.999 -99.9 -99.99 -9.99
2019/11/16 07:54 CST    1.52   1.42    4   46    5  44.1  59.9 1025.1 -9.9 -9.999 -99.9 -99.99 -9.99
2019/11/16 08:00 CST    1.52   1.41    4   55    5  44.4  59.9 1025.1 -9.9 -9.999 -99.9 -99.99 -9.99
2019/11/16 08:06 CST    1.51   1.44    5   59    5  45.0  59.9 1025.1 -9.9 -9.999 -99.9 -99.99 -9.99
2019/11/16 08:12 CST    1.51   1.43    4   51    6  45.9  59.9 1025.1 -9.9 -9.999 -99.9 -99.99 -9.99
2019/11/16 08:18 CST    1.50   1.39    4   50    5  46.4  59.9 1025.3 -9.9 -9.999 -99.9 -99.99 -9.99
2019/11/16 08:24 CST    1.49   1.41    4   41    5  46.9  59.7 1025.2 -9.9 -9.999 -99.9 -99.99 -9.99
2019/11/16 08:30 CST    1.49   1.40    4   44    6  47.5  59.7 1025.3 -9.9 -9.999 -99.9 -99.99 -9.99
2019/11/16 08:36 CST    1.48   1.37    5   42    6  47.8  59.7 1025.2 -9.9 -9.999 -99.9 -99.99 -9.99
2019/11/16 08:42 CST    1.47   1.41    5   51    6  48.4  59.7 1025.3 -9.9 -9.999 -99.9 -99.99 -9.99
2019/11/16 08:48 CST    1.46   1.37    4   49    6  48.7  59.5 1025.3 -9.9 -9.999 -99.9 -99.99 -9.99
2019/11/16 08:54 CST    1.45   1.37    4   43    6  49.5  59.5 1025.3 -9.9 -9.999 -99.9 -99.99 -9.99
2019/11/16 09:00 CST    1.44   1.36    3   48    4  50.2  59.5 1025.3 -9.9 -9.999 -99.9 -99.99 -9.99
2019/11/16 09:06 CST    1.43   1.33    3   35    5  50.7  59.5 1025.3 -9.9 -9.999 -99.9 -99.99 -9.99
2019/11/16 09:12 CST    1.41   1.31    4   53    6  51.3  59.5 1025.3 -9.9 -9.999 -99.9 -99.99 -9.99
2019/11/16 09:18 CST    1.40   1.31    5   55    7  51.4  59.5 1025.3 -9.9 -9.999 -99.9 -99.99 -9.99
2019/11/16 09:24 CST    1.39   1.28    5   56    7  51.4  59.5 1025.3 -9.9 -9.999 -99.9 -99.99 -9.99
2019/11/16 09:30 CST    1.37   1.25    4   62    7  51.4  59.5 1025.5 -9.9 -9.999 -99.9 -99.99 -9.99
2019/11/16 09:36 CST    1.36   1.29    4   71    6  52.2  59.5 1025.5 -9.9 -9.999 -99.9 -99.99 -9.99
2019/11/16 09:42 CST    1.34   1.28    4   88    6  52.2  59.5 1025.5 -9.9 -9.999 -99.9 -99.99 -9.99
2019/11/16 09:48 CST    1.32   1.26    5   95    8  52.7  59.5 1025.5 -9.9 -9.999 -99.9 -99.99 -9.99
2019/11/16 09:54 CST    1.31   1.26    3   94    7  53.2  59.5 1025.4 -9.9 -9.999 -99.9 -99.99 -9.99
2019/11/16 10:00 CST    1.29   1.25    5   93    6  53.2  59.7 1025.5 -9.9 -9.999 -99.9 -99.99 -9.99
2019/11/16 10:06 CST    1.27   1.25    4   57    9  53.4  59.7 1025.4 -9.9 -9.999 -99.9 -99.99 -9.99
2019/11/16 10:12 CST    1.25   1.25    6   62    9  53.4  59.7 1025.3 -9.9 -9.999 -99.9 -99.99 -9.99
2019/11/16 10:18 CST    1.23   1.23    6   61    9  53.2  59.7 1025.3 -9.9 -9.999 -99.9 -99.99 -9.99
2019/11/16 10:24 CST    1.21   1.25    6   56    8  53.4  59.7 1025.1 -9.9 -9.999 -99.9 -99.99 -9.99
2019/11/16 10:30 CST    1.19   1.24    5   74    9  54.1  59.7 1025.1 -9.9 -9.999 -99.9 -99.99 -9.99
2019/11/16 10:36 CST    1.17   1.22    6   78    8  54.0  59.7 1025.0 -9.9 -9.999 -99.9 -99.99 -9.99
2019/11/16 10:42 CST    1.15   1.20    6   85   10  53.6  59.7 1025.0 -9.9 -9.999 -99.9 -99.99 -9.99
2019/11/16 10:48 CST    1.13   1.20    5   52    7  54.0  59.7 1024.8 -9.9 -9.999 -99.9 -99.99 -9.99
2019/11/16 10:54 CST    1.11   1.19    6   90    8  54.0  59.7 1024.6 -9.9 -9.999 -99.9 -99.99 -9.99
2019/11/16 11:00 CST    1.09   1.17    4   75    7  54.9  59.7 1024.5 -9.9 -9.999 -99.9 -99.99 -9.99
2019/11/16 11:06 CST    1.06   1.17    6   91    7  54.3  59.7 1024.5 -9.9 -9.999 -99.9 -99.99 -9.99
2019/11/16 11:12 CST    1.04   1.15    6   79    7  54.9  59.7 1024.3 -9.9 -9.999 -99.9 -99.99 -9.99
2019/11/16 11:18 CST    1.02   1.13    3  104    8  54.9  59.7 1024.2 -9.9 -9.999 -99.9 -99.99 -9.99
2019/11/16 11:24 CST    0.99   1.12    4   50    8  55.2  59.7 1024.0 -9.9 -9.999 -99.9 -99.99 -9.99
2019/11/16 11:30 CST    0.97   1.12    3  106    7  55.4  59.9 1023.9 -9.9 -9.999 -99.9 -99.99 -9.99
2019/11/16 11:36 CST    0.94   1.07    4   85    7  54.7  59.9 1023.8 -9.9 -9.999 -99.9 -99.99 -9.99
2019/11/16 11:42 CST    0.91   1.00    2   75    4  55.9  59.9 1023.6 -9.9 -9.999 -99.9 -99.99 -9.99
2019/11/16 11:48 CST    0.89   0.98    3  106    6  55.4  59.9 1023.5 -9.9 -9.999 -99.9 -99.99 -9.99
2019/11/16 11:54 CST    0.86   0.95    4   32    7  55.9  60.1 1023.5 -9.9 -9.999 -99.9 -99.99 -9.99
2019/11/16 12:00 CST    0.83   0.89    3   76    7  56.1  60.1 1023.3 -9.9 -9.999 -99.9 -99.99 -9.99
2019/11/16 12:06 CST    0.80   0.88    2  120    7  56.8  60.1 1023.1 -9.9 -9.999 -99.9 -99.99 -9.99
2019/11/16 12:12 CST    0.77   0.86    4   38    7  57.0  60.3 1022.9 -9.9 -9.999 -99.9 -99.99 -9.99
2019/11/16 12:18 CST    0.74   0.83    2  337    5  57.2  60.3 1022.7 -9.9 -9.999 -99.9 -99.99 -9.99
2019/11/16 12:24 CST    0.71   0.81    2   37    4  57.0  60.3 1022.5 -9.9 -9.999 -99.9 -99.99 -9.99
2019/11/16 12:30 CST    0.68   0.75    1  151    6  57.9  60.4 1022.4 -9.9 -9.999 -99.9 -99.99 -9.99
2019/11/16 12:36 CST    0.65   0.70    2  168    4  59.2  60.4 1022.2 -9.9 -9.999 -99.9 -99.99 -9.99
2019/11/16 12:42 CST    0.62   0.65    1  174    4  59.2  60.4 1022.1 -9.9 -9.999 -99.9 -99.99 -9.99
2019/11/16 12:48 CST    0.59   0.59    1  134    4  59.2  60.6 1022.0 -9.9 -9.999 -99.9 -99.99 -9.99
2019/11/16 12:54 CST    0.56   0.53    3   40    5  58.1  60.6 1021.7 -9.9 -9.999 -99.9 -99.99 -9.99
2019/11/16 13:00 CST    0.53   0.48    2  305    4  58.5  60.6 1021.6 -9.9 -9.999 -99.9 -99.99 -9.99
2019/11/16 13:06 CST    0.50   0.43    2  356    4  58.5  60.6 1021.5 -9.9 -9.999 -99.9 -99.99 -9.99
2019/11/16 13:12 CST    0.48   0.40    3  174    4  59.9  60.8 1021.3 -9.9 -9.999 -99.9 -99.99 -9.99
2019/11/16 13:18 CST    0.45   0.38    1  123    2  59.7  60.8 1021.2 -9.9 -9.999 -99.9 -99.99 -9.99
2019/11/16 13:24 CST    0.42   0.35    1   50    4  60.1  61.0 1021.1 -9.9 -9.999 -99.9 -99.99 -9.99
2019/11/16 13:30 CST    0.39   0.33    2  285    4  60.4  61.0 1020.9 -9.9 -9.999 -99.9 -99.99 -9.99
2019/11/16 13:36 CST    0.36   0.32    0  151    4  61.2  61.0 1020.8 -9.9 -9.999 -99.9 -99.99 -9.99
2019/11/16 13:42 CST    0.33   0.31    1  208    3  61.3  61.2 1020.7 -9.9 -9.999 -99.9 -99.99 -9.99
2019/11/16 13:48 CST    0.31   0.28    1  213    4  61.0  61.2 1020.6 -9.9 -9.999 -99.9 -99.99 -9.99
2019/11/16 13:54 CST    0.28   0.27    1  243    4  61.5  61.2 1020.5 -9.9 -9.999 -99.9 -99.99 -9.99
2019/11/16 14:00 CST    0.25   0.26    1  233    2  60.4  61.3 1020.4 -9.9 -9.999 -99.9 -99.99 -9.99
2019/11/16 14:06 CST    0.23   0.23    2   68    3  59.7  61.3 1020.3 -9.9 -9.999 -99.9 -99.99 -9.99
2019/11/16 14:12 CST    0.20   0.19    3   18    5  59.9  61.3 1020.2 -9.9 -9.999 -99.9 -99.99 -9.99
2019/11/16 14:18 CST    0.18   0.19    3   20    5  60.6  61.5 1020.1 -9.9 -9.999 -99.9 -99.99 -9.99
2019/11/16 14:24 CST    0.16   0.18    3  326    4  60.8  61.5 1020.0 -9.9 -9.999 -99.9 -99.99 -9.99
2019/11/16 14:30 CST    0.13   0.15    2   29    4  61.3  61.5 1019.9 -9.9 -9.999 -99.9 -99.99 -9.99
2019/11/16 14:36 CST    0.11   0.14    4  337    5  60.4  61.5 1019.9 -9.9 -9.999 -99.9 -99.99 -9.99
2019/11/16 14:42 CST    0.09   0.14    4  357    5  60.1  61.5 1019.9 -9.9 -9.999 -99.9 -99.99 -9.99
2019/11/16 14:48 CST    0.07   0.14    0   46    5  60.4  61.5 1019.9 -9.9 -9.999 -99.9 -99.99 -9.99
2019/11/16 14:54 CST    0.05   0.12    3  310    5  60.1  61.7 1020.0 -9.9 -9.999 -99.9 -99.99 -9.99
2019/11/16 15:00 CST    0.03   0.10    2  298    3  60.3  61.7 1019.9 -9.9 -9.999 -99.9 -99.99 -9.99
2019/11/16 15:06 CST    0.01   0.09    2   10    4  60.6  61.7 1019.9 -9.9 -9.999 -99.9 -99.99 -9.99
2019/11/16 15:12 CST   -0.01   0.08    1   47    3  60.6  61.7 1019.8 -9.9 -9.999 -99.9 -99.99 -9.99
2019/11/16 15:18 CST   -0.03   0.08    3  358    5  60.1  61.7 1019.8 -9.9 -9.999 -99.9 -99.99 -9.99
2019/11/16 15:24 CST   -0.04   0.05    3   36    5  60.3  61.7 1019.8 -9.9 -9.999 -99.9 -99.99 -9.99
2019/11/16 15:30 CST   -0.06   0.04    2   40    5  60.6  61.7 1019.8 -9.9 -9.999 -99.9 -99.99 -9.99
2019/11/16 15:36 CST   -0.07   0.02    1   45    3  60.4  61.9 1019.7 -9.9 -9.999 -99.9 -99.99 -9.99
2019/11/16 15:42 CST   -0.09   0.02    3  358    5  60.3  61.9 1019.6 -9.9 -9.999 -99.9 -99.99 -9.99
2019/11/16 15:48 CST   -0.10  -0.00    4   16    4  60.4  61.9 1019.7 -9.9 -9.999 -99.9 -99.99 -9.99
2019/11/16 15:54 CST   -0.11  -0.01    3   13    5  60.4  61.9 1019.8 -9.9 -9.999 -99.9 -99.99 -9.99
2019/11/16 16:00 CST   -0.12  -0.02    3  353    4  60.6  61.9 1019.9 -9.9 -9.999 -99.9 -99.99 -9.99
2019/11/16 16:06 CST   -0.13  -0.06    3   26    4  60.6  61.9 1019.9 -9.9 -9.999 -99.9 -99.99 -9.99
2019/11/16 16:12 CST   -0.14  -0.05    2  334    5  60.8  61.9 1019.8 -9.9 -9.999 -99.9 -99.99 -9.99
2019/11/16 16:18 CST   -0.14  -0.10    2  343    4  60.8  61.9 1019.8 -9.9 -9.999 -99.9 -99.99 -9.99
2019/11/16 16:24 CST   -0.15  -0.15    3   30    4  60.6  61.9 1019.8 -9.9 -9.999 -99.9 -99.99 -9.99
2019/11/16 16:30 CST   -0.15  -0.14    5   25    7  60.6  61.9 1019.7 -9.9 -9.999 -99.9 -99.99 -9.99
2019/11/16 16:36 CST   -0.16  -0.17    4   19    5  60.6  61.9 1019.6 -9.9 -9.999 -99.9 -99.99 -9.99
2019/11/16 16:42 CST   -0.16  -0.16    2   43    4  60.6  61.9 1019.5 -9.9 -9.999 -99.9 -99.99 -9.99
2019/11/16 16:48 CST   -0.16  -0.16    4   10    5  60.6  61.9 1019.6 -9.9 -9.999 -99.9 -99.99 -9.99
2019/11/16 16:54 CST   -0.16  -0.18    3  354    5  60.1  61.9 1019.7 -9.9 -9.999 -99.9 -99.99 -9.99
2019/11/16 17:00 CST   -0.16  -0.17    3    6    4  60.1  61.9 1019.7 -9.9 -9.999 -99.9 -99.99 -9.99
2019/11/16 17:06 CST   -0.16  -0.17    3  353    4  59.9  61.9 1019.8 -9.9 -9.999 -99.9 -99.99 -9.99
2019/11/16 17:12 CST   -0.16  -0.16    3  353    3  59.7  61.9 1019.8 -9.9 -9.999 -99.9 -99.99 -9.99
2019/11/16 17:18 CST   -0.15  -0.16    3   34    4  59.9  61.9 1019.7 -9.9 -9.999 -99.9 -99.99 -9.99
2019/11/16 17:24 CST   -0.15  -0.14    2   38    4  59.5  61.9 1019.7 -9.9 -9.999 -99.9 -99.99 -9.99
2019/11/16 17:30 CST   -0.14  -0.14    3   35    4  59.5  61.7 1019.6 -9.9 -9.999 -99.9 -99.99 -9.99
2019/11/16 17:36 CST   -0.13  -0.12    3   45    4  59.2  61.7 1019.6 -9.9 -9.999 -99.9 -99.99 -9.99
2019/11/16 17:42 CST   -0.12  -0.10    3   38    4  58.6  61.7 1019.6 -9.9 -9.999 -99.9 -99.99 -9.99
2019/11/16 17:48 CST   -0.11  -0.07    2   58    4  58.5  61.7 1019.7 -9.9 -9.999 -99.9 -99.99 -9.99
2019/11/16 17:54 CST   -0.10  -0.06    2   44    3  58.1  61.7 1020.0 -9.9 -9.999 -99.9 -99.99 -9.99
2019/11/16 18:00 CST   -0.09  -0.02    2   14    2  58.1  61.7 1020.0 -9.9 -9.999 -99.9 -99.99 -9.99
2019/11/16 18:06 CST   -0.08   0.03    2   20    3  57.6  61.7 1020.0 -9.9 -9.999 -99.9 -99.99 -9.99
2019/11/16 18:12 CST   -0.07   0.07    2   13    2  57.4  61.7 1020.0 -9.9 -9.999 -99.9 -99.99 -9.99
2019/11/16 18:18 CST   -0.05   0.09    2   45    3  57.4  61.7 1020.1 -9.9 -9.999 -99.9 -99.99 -9.99
2019/11/16 18:24 CST   -0.03   0.14    3   36    3  57.0  61.7 1020.1 -9.9 -9.999 -99.9 -99.99 -9.99
2019/11/16 18:30 CST   -0.02   0.15    3   31    3  57.0  61.7 1020.0 -9.9 -9.999 -99.9 -99.99 -9.99
2019/11/16 18:36 CST    0.00   0.20    2   34    3  56.7  61.7 1020.1 -9.9 -9.999 -99.9 -99.99 -9.99
2019/11/16 18:42 CST    0.02   0.25    2   38    3  56.7  61.7 1020.0 -9.9 -9.999 -99.9 -99.99 -9.99
2019/11/16 18:48 CST    0.04   0.29    3   41    4  56.5  61.7 1020.0 -9.9 -9.999 -99.9 -99.99 -9.99
2019/11/16 18:54 CST    0.07   0.34    3   40    4  56.5  61.5 1020.0 -9.9 -9.999 -99.9 -99.99 -9.99
2019/11/16 19:00 CST    0.09   0.38    2   32    3  56.3  61.7 1020.0 -9.9 -9.999 -99.9 -99.99 -9.99
2019/11/16 19:06 CST    0.12   0.39    2    8    3  56.1  61.7 1020.1 -9.9 -9.999 -99.9 -99.99 -9.99
2019/11/16 19:12 CST    0.14   0.45    2   11    3  55.9  61.5 1020.2 -9.9 -9.999 -99.9 -99.99 -9.99
2019/11/16 19:18 CST    0.17   0.50    1  303    1  55.4  61.5 1020.2 -9.9 -9.999 -99.9 -99.99 -9.99
2019/11/16 19:24 CST    0.20   0.53    0  271    1  55.4  61.5 1020.3 -9.9 -9.999 -99.9 -99.99 -9.99
2019/11/16 19:30 CST    0.23   0.56    0  208    1  55.8  61.5 1020.4 -9.9 -9.999 -99.9 -99.99 -9.99
2019/11/16 19:36 CST    0.26   0.62    0  284    1  55.6  61.5 1020.2 -9.9 -9.999 -99.9 -99.99 -9.99
2019/11/16 19:42 CST    0.29   0.61    2   26    2  56.1  61.5 1020.2 -9.9 -9.999 -99.9 -99.99 -9.99
2019/11/16 19:48 CST    0.33   0.69    1   48    2  55.9  61.5 1020.1 -9.9 -9.999 -99.9 -99.99 -9.99
2019/11/16 19:54 CST    0.36   0.81    2   46    3  55.4  61.5 1020.0 -9.9 -9.999 -99.9 -99.99 -9.99
2019/11/16 20:00 CST    0.40   0.80    2   36    3  54.9  61.5 1020.0 -9.9 -9.999 -99.9 -99.99 -9.99
2019/11/16 20:06 CST    0.44   0.85    1   14    3  54.5  61.5 1020.2 -9.9 -9.999 -99.9 -99.99 -9.99
2019/11/16 20:12 CST    0.47   0.88    1   47    2  54.3  61.5 1020.2 -9.9 -9.999 -99.9 -99.99 -9.99
2019/11/16 20:18 CST    0.51   0.91    2   39    3  54.1  61.5 1020.2 -9.9 -9.999 -99.9 -99.99 -9.99
2019/11/16 20:24 CST    0.55   0.97    1   32    2  54.1  61.5 1020.2 -9.9 -9.999 -99.9 -99.99 -9.99
2019/11/16 20:30 CST    0.59   1.00    2   41    2  54.0  61.5 1020.2 -9.9 -9.999 -99.9 -99.99 -9.99
2019/11/16 20:36 CST    0.63   1.06    1   17    2  53.8  61.5 1020.3 -9.9 -9.999 -99.9 -99.99 -9.99
2019/11/16 20:42 CST    0.67   1.09    1  217    2  54.1  61.3 1020.3 -9.9 -9.999 -99.9 -99.99 -9.99
2019/11/16 20:48 CST    0.71   1.14    0  188    2  54.1  61.3 1020.2 -9.9 -9.999 -99.9 -99.99 -9.99
2019/11/16 20:54 CST    0.75   1.18    0  175    0  54.0  61.3 1020.2 -9.9 -9.999 -99.9 -99.99 -9.99
2019/11/16 21:00 CST    0.79   1.20    0  121    1  53.1  61.3 1020.0 -9.9 -9.999 -99.9 -99.99 -9.99
2019/11/16 21:06 CST    0.83   1.23    0  121    0  53.2  61.3 1020.0 -9.9 -9.999 -99.9 -99.99 -9.99
2019/11/16 21:12 CST    0.87   1.26    1   89    2  53.6  61.3 1019.9 -9.9 -9.999 -99.9 -99.99 -9.99
2019/11/16 21:18 CST    0.91   1.32    0   47    2  53.6  61.3 1019.8 -9.9 -9.999 -99.9 -99.99 -9.99
2019/11/16 21:24 CST    0.95   1.34    0  168    2  53.6  61.3 1019.7 -9.9 -9.999 -99.9 -99.99 -9.99
2019/11/16 21:30 CST    0.99   1.38    0  284    1  52.7  61.3 1019.6 -9.9 -9.999 -99.9 -99.99 -9.99
2019/11/16 21:36 CST    1.03   1.43    1  222    1  52.9  61.3 1019.6 -9.9 -9.999 -99.9 -99.99 -9.99
2019/11/16 21:42 CST    1.06   1.45    1  206    1  52.9  61.3 1019.6 -9.9 -9.999 -99.9 -99.99 -9.99
2019/11/16 21:48 CST    1.10   1.47    0  150    1  52.7  61.5 1019.5 -9.9 -9.999 -99.9 -99.99 -9.99
2019/11/16 21:54 CST    1.14   1.52    0  308    1  52.2  61.5 1019.5 -9.9 -9.999 -99.9 -99.99 -9.99
2019/11/16 22:00 CST    1.18   1.56    0   24    2  51.8  61.5 1019.4 -9.9 -9.999 -99.9 -99.99 -9.99
2019/11/16 22:06 CST    1.21   1.58    0  351    1  52.2  61.5 1019.4 -9.9 -9.999 -99.9 -99.99 -9.99
2019/11/16 22:12 CST    1.25   1.62    0  268    2  51.8  61.5 1019.5 -9.9 -9.999 -99.9 -99.99 -9.99
2019/11/16 22:18 CST    1.28   1.67    0  280    2  52.0  61.5 1019.5 -9.9 -9.999 -99.9 -99.99 -9.99
2019/11/16 22:24 CST    1.32   1.66    2  207    3  52.3  61.5 1019.4 -9.9 -9.999 -99.9 -99.99 -9.99
2019/11/16 22:30 CST    1.35   1.71    2  211    2  52.0  61.5 1019.4 -9.9 -9.999 -99.9 -99.99 -9.99
2019/11/16 22:36 CST    1.39   1.75    2  229    2  52.3  61.5 1019.4 -9.9 -9.999 -99.9 -99.99 -9.99
2019/11/16 22:42 CST    1.42   1.77    1  197    2  52.3  61.5 1019.4 -9.9 -9.999 -99.9 -99.99 -9.99
2019/11/16 22:48 CST    1.45   1.80    2  216    3  52.2  61.5 1019.1 -9.9 -9.999 -99.9 -99.99 -9.99
2019/11/16 22:54 CST    1.48   1.84    1  154    3  52.0  61.5 1019.0 -9.9 -9.999 -99.9 -99.99 -9.99
2019/11/16 23:00 CST    1.51   1.83    0  167    2  51.6  61.5 1019.0 -9.9 -9.999 -99.9 -99.99 -9.99
2019/11/16 23:06 CST    1.54   1.84    1  192    3  52.3  61.5 1019.0 -9.9 -9.999 -99.9 -99.99 -9.99
2019/11/16 23:12 CST    1.57   1.91    3  202    4  53.1  61.5 1019.1 -9.9 -9.999 -99.9 -99.99 -9.99
2019/11/16 23:18 CST    1.60   1.91    2  225    3  52.2  61.5 1019.1 -9.9 -9.999 -99.9 -99.99 -9.99
2019/11/16 23:24 CST    1.62   1.93    1  267    2  50.9  61.5 1019.0 -9.9 -9.999 -99.9 -99.99 -9.99
2019/11/16 23:30 CST    1.65   1.94    2  261    2  51.1  61.5 1019.1 -9.9 -9.999 -99.9 -99.99 -9.99
2019/11/16 23:36 CST    1.67   1.97    2  263    3  50.9  61.5 1019.2 -9.9 -9.999 -99.9 -99.99 -9.99
2019/11/16 23:42 CST    1.70   1.97    2  257    3  50.4  61.5 1019.1 -9.9 -9.999 -99.9 -99.99 -9.99
2019/11/16 23:48 CST    1.72   1.99    3  287    4  49.1  61.5 1019.1 -9.9 -9.999 -99.9 -99.99 -9.99
2019/11/16 23:54 CST    1.74   1.99    2  274    4  49.1  61.5 1019.2 -9.9 -9.999 -99.9 -99.99 -9.99
2019/11/17 00:00 CST    1.76   2.00    3  290    4  48.6  61.5 1019.2 -9.9 -9.999 -99.9 -99.99 -9.99
2019/11/17 00:06 CST    1.78   2.01    3  285    3  48.4  61.5 1019.1 -9.9 -9.999 -99.9 -99.99 -9.99
2019/11/17 00:12 CST    1.79   2.01    2  282    4  48.6  61.5 1019.1 -9.9 -9.999 -99.9 -99.99 -9.99
2019/11/17 00:18 CST    1.81   2.01    2  279    3  48.6  61.5 1019.1 -9.9 -9.999 -99.9 -99.99 -9.99
2019/11/17 00:24 CST    1.82   2.01    0  307    3  48.6  61.5 1019.0 -9.9 -9.999 -99.9 -99.99 -9.99
2019/11/17 00:30 CST    1.84   2.01    1  290    2  48.9  61.5 1018.9 -9.9 -9.999 -99.9 -99.99 -9.99
2019/11/17 00:36 CST    1.85   2.04    2  268    3  49.3  61.5 1019.0 -9.9 -9.999 -99.9 -99.99 -9.99
2019/11/17 00:42 CST    1.86   2.02    2  264    3  49.3  61.5 1019.0 -9.9 -9.999 -99.9 -99.99 -9.99
2019/11/17 00:48 CST    1.87   2.05    0  171    2  49.6  61.5 1018.8 -9.9 -9.999 -99.9 -99.99 -9.99
2019/11/17 00:54 CST    1.88   2.03    2  268    2  49.5  61.5 1018.8 -9.9 -9.999 -99.9 -99.99 -9.99
2019/11/17 01:00 CST    1.89   2.02    2  272    4  49.3  61.5 1018.9 -9.9 -9.999 -99.9 -99.99 -9.99
2019/11/17 01:06 CST    1.89   2.05    3  267    4  49.1  61.5 1019.0 -9.9 -9.999 -99.9 -99.99 -9.99
2019/11/17 01:12 CST    1.90   2.05    3  284    4  48.7  61.5 1019.0 -9.9 -9.999 -99.9 -99.99 -9.99
2019/11/17 01:18 CST    1.90   2.06    2  270    3  48.7  61.5 1018.9 -9.9 -9.999 -99.9 -99.99 -9.99
2019/11/17 01:24 CST    1.91   2.07    2  271    3  48.9  61.5 1018.9 -9.9 -9.999 -99.9 -99.99 -9.99
2019/11/17 01:30 CST    1.91   2.05    2  276    4  48.6  61.5 1018.8 -9.9 -9.999 -99.9 -99.99 -9.99
2019/11/17 01:36 CST    1.91   2.04    3  266    4  48.9  61.5 1018.7 -9.9 -9.999 -99.9 -99.99 -9.99
2019/11/17 01:42 CST    1.91   2.07    2  272    4  48.6  61.5 1018.8 -9.9 -9.999 -99.9 -99.99 -9.99
2019/11/17 01:48 CST    1.91   2.06    3  277    4  48.2  61.5 1018.9 -9.9 -9.999 -99.9 -99.99 -9.99
2019/11/17 01:54 CST    1.91   2.07    2  271    4  48.6  61.5 1018.9 -9.9 -9.999 -99.9 -99.99 -9.99
2019/11/17 02:00 CST    1.91   2.07    2  262    5  48.7  61.5 1019.0 -9.9 -9.999 -99.9 -99.99 -9.99
2019/11/17 02:06 CST    1.91   2.08    1  267    3  48.7  61.5 1018.9 -9.9 -9.999 -99.9 -99.99 -9.99
2019/11/17 02:12 CST    1.91   2.08    2  279    3  48.4  61.5 1019.0 -9.9 -9.999 -99.9 -99.99 -9.99
2019/11/17 02:18 CST    1.91   2.09    2  283    3  48.4  61.5 1018.9 -9.9 -9.999 -99.9 -99.99 -9.99
2019/11/17 02:24 CST    1.91   2.09    1  303    3  48.4  61.7 1018.7 -9.9 -9.999 -99.9 -99.99 -9.99
2019/11/17 02:30 CST    1.91   2.08    1  307    2  48.6  61.7 1018.6 -9.9 -9.999 -99.9 -99.99 -9.99
2019/11/17 02:36 CST    1.90   2.11    2  301    2  48.7  61.7 1018.6 -9.9 -9.999 -99.9 -99.99 -9.99
2019/11/17 02:42 CST    1.90   2.10    2  284    2  48.6  61.7 1018.6 -9.9 -9.999 -99.9 -99.99 -9.99
2019/11/17 02:48 CST    1.90   2.08    0  295    2  48.6  61.7 1018.5 -9.9 -9.999 -99.9 -99.99 -9.99
2019/11/17 02:54 CST    1.89   2.08    0  294    0  48.6  61.7 1018.3 -9.9 -9.999 -99.9 -99.99 -9.99
2019/11/17 03:00 CST    1.89   2.10    1   54    2  48.6  61.7 1018.1 -9.9 -9.999 -99.9 -99.99 -9.99
2019/11/17 03:06 CST    1.89   2.08    2   29    2  48.2  61.7 1018.2 -9.9 -9.999 -99.9 -99.99 -9.99
2019/11/17 03:12 CST    1.88   2.08    1   18    2  48.0  61.7 1018.3 -9.9 -9.999 -99.9 -99.99 -9.99
2019/11/17 03:18 CST    1.88   2.09    1   26    2  47.8  61.7 1018.3 -9.9 -9.999 -99.9 -99.99 -9.99
2019/11/17 03:24 CST    1.87   2.09    2   39    2  47.5  61.7 1018.3 -9.9 -9.999 -99.9 -99.99 -9.99
2019/11/17 03:30 CST    1.87   2.10    2   31    2  47.3  61.7 1018.4 -9.9 -9.999 -99.9 -99.99 -9.99
2019/11/17 03:36 CST    1.86   2.10    2   30    3  46.9  61.7 1018.4 -9.9 -9.999 -99.9 -99.99 -9.99
2019/11/17 03:42 CST    1.85   2.09    2    9    2  47.1  61.7 1018.5 -9.9 -9.999 -99.9 -99.99 -9.99
2019/11/17 03:48 CST    1.85   2.10    1   14    3  46.9  61.7 1018.6 -9.9 -9.999 -99.9 -99.99 -9.99
2019/11/17 03:54 CST    1.84   2.09    2    3    3  46.6  61.7 1018.6 -9.9 -9.999 -99.9 -99.99 -9.99
2019/11/17 04:00 CST    1.84   2.09    1   14    3  46.0  61.7 1018.5 -9.9 -9.999 -99.9 -99.99 -9.99
2019/11/17 04:06 CST    1.83   2.10    2   63    2  46.6  61.7 1018.3 -9.9 -9.999 -99.9 -99.99 -9.99
2019/11/17 04:12 CST    1.82   2.11    3  102    4  46.9  61.7 1018.0 -9.9 -9.999 -99.9 -99.99 -9.99
2019/11/17 04:18 CST    1.82   2.11    2   81    4  47.7  61.7 1018.0 -9.9 -9.999 -99.9 -99.99 -9.99
2019/11/17 04:24 CST    1.81   2.11    1  357    3  47.7  61.7 1018.1 -9.9 -9.999 -99.9 -99.99 -9.99
2019/11/17 04:30 CST    1.80   2.10    2  352    2  47.1  61.7 1018.1 -9.9 -9.999 -99.9 -99.99 -9.99
2019/11/17 04:36 CST    1.80   2.09    2    0    3  47.1  61.7 1018.2 -9.9 -9.999 -99.9 -99.99 -9.99
2019/11/17 04:42 CST    1.79   2.10    1   15    2  46.6  61.7 1018.0 -9.9 -9.999 -99.9 -99.99 -9.99
2019/11/17 04:48 CST    1.79   2.10    1   16    2  46.8  61.7 1018.0 -9.9 -9.999 -99.9 -99.99 -9.99
2019/11/17 04:54 CST    1.78   2.10    1  317    2  46.2  61.7 1018.1 -9.9 -9.999 -99.9 -99.99 -9.99
2019/11/17 05:00 CST    1.77   2.10    2  346    2  46.2  61.7 1018.0 -9.9 -9.999 -99.9 -99.99 -9.99
2019/11/17 05:06 CST    1.77   2.10    1  322    2  46.0  61.7 1018.0 -9.9 -9.999 -99.9 -99.99 -9.99
2019/11/17 05:12 CST    1.76   2.12    1   14    2  46.4  61.7 1017.9 -9.9 -9.999 -99.9 -99.99 -9.99
2019/11/17 05:18 CST    1.76   2.11    1    5    2  46.6  61.7 1018.0 -9.9 -9.999 -99.9 -99.99 -9.99
2019/11/17 05:24 CST    1.75   2.11    2  307    2  45.7  61.7 1018.1 -9.9 -9.999 -99.9 -99.99 -9.99
2019/11/17 05:30 CST    1.74   2.12    2  323    2  45.5  61.7 1018.1 -9.9 -9.999 -99.9 -99.99 -9.99
2019/11/17 05:36 CST    1.74   2.12    2   25    3  45.5  61.7 1018.0 -9.9 -9.999 -99.9 -99.99 -9.99
2019/11/17 05:42 CST    1.73   2.11    1  354    2  45.3  61.7 1018.0 -9.9 -9.999 -99.9 -99.99 -9.99
2019/11/17 05:48 CST    1.72   2.12    0  256    1  45.5  61.7 1017.9 -9.9 -9.999 -99.9 -99.99 -9.99
2019/11/17 05:54 CST    1.72   2.12    2  327    2  45.1  61.7 1017.9 -9.9 -9.999 -99.9 -99.99 -9.99
2019/11/17 06:00 CST    1.71   2.13    3  353    4  45.1  61.7 1017.9 -9.9 -9.999 -99.9 -99.99 -9.99
2019/11/17 06:06 CST    1.70   2.13    2  342    3  45.1  61.7 1018.0 -9.9 -9.999 -99.9 -99.99 -9.99
2019/11/17 06:12 CST    1.70   2.13    1  344    2  45.5  61.7 1018.1 -9.9 -9.999 -99.9 -99.99 -9.99
2019/11/17 06:18 CST    1.69   2.14    2   15    3  45.7  61.7 1018.0 -9.9 -9.999 -99.9 -99.99 -9.99
2019/11/17 06:24 CST    1.68   2.14    1  351    3  45.0  61.7 1018.0 -9.9 -9.999 -99.9 -99.99 -9.99
2019/11/17 06:30 CST    1.67   2.13    1  347    2  44.6  61.7 1018.1 -9.9 -9.999 -99.9 -99.99 -9.99
2019/11/17 06:36 CST    1.67   2.15    2  326    2  44.1  61.7 1018.1 -9.9 -9.999 -99.9 -99.99 -9.99
2019/11/17 06:42 CST    1.66   2.15    1  334    2  44.4  61.7 1018.2 -9.9 -9.999 -99.9 -99.99 -9.99
2019/11/17 06:48 CST    1.65   2.14    2    4    2  44.8  61.7 1018.1 -9.9 -9.999 -99.9 -99.99 -9.99
2019/11/17 06:54 CST    1.64   2.14    1  342    3  45.0  61.7 1018.3 -9.9 -9.999 -99.9 -99.99 -9.99
2019/11/17 07:00 CST    1.63   2.14    2  346    3  45.0  61.7 1018.4 -9.9 -9.999 -99.9 -99.99 -9.99
2019/11/17 07:06 CST    1.63   2.14    2  337    3  45.1  61.7 1018.5 -9.9 -9.999 -99.9 -99.99 -9.99
2019/11/17 07:12 CST    1.62   2.14    1  324    2  45.1  61.7 1018.5 -9.9 -9.999 -99.9 -99.99 -9.99
2019/11/17 07:18 CST    1.61   2.13    1  337    2  45.7  61.7 1018.6 -9.9 -9.999 -99.9 -99.99 -9.99
2019/11/17 07:24 CST    1.60   2.18    2  299    2  45.5  61.9 1018.7 -9.9 -9.999 -99.9 -99.99 -9.99
2019/11/17 07:30 CST    1.59   2.12    1  266    2  45.9  61.9 1018.7 -9.9 -9.999 -99.9 -99.99 -9.99
2019/11/17 07:36 CST    1.59   2.11    1  287    1  46.2  61.9 1018.9 -9.9 -9.999 -99.9 -99.99 -9.99
2019/11/17 07:42 CST    1.58   2.14    2  318    2  46.2  61.9 1018.9 -9.9 -9.999 -99.9 -99.99 -9.99
2019/11/17 07:48 CST    1.57   2.05    1  312    2  47.1  61.9 1019.1 -9.9 -9.999 -99.9 -99.99 -9.99
2019/11/17 07:54 CST    1.57   2.04    2  320    3  47.3  61.9 1019.1 -9.9 -9.999 -99.9 -99.99 -9.99
2019/11/17 08:00 CST    1.56   2.07    2  317    3  47.5  61.9 1019.2 -9.9 -9.999 -99.9 -99.99 -9.99
2019/11/17 08:06 CST    1.55   2.06    2  321    2  47.8  61.9 1019.1 -9.9 -9.999 -99.9 -99.99 -9.99
2019/11/17 08:12 CST    1.55   2.07    2  313    2  48.0  62.1 1019.2 -9.9 -9.999 -99.9 -99.99 -9.99
2019/11/17 08:18 CST    1.54   2.08    2  306    3  48.2  61.9 1019.3 -9.9 -9.999 -99.9 -99.99 -9.99
2019/11/17 08:24 CST    1.53   2.06    3  324    4  48.4  61.9 1019.5 -9.9 -9.999 -99.9 -99.99 -9.99
2019/11/17 08:30 CST    1.53   2.02    3  322    3  48.7  61.9 1019.5 -9.9 -9.999 -99.9 -99.99 -9.99
2019/11/17 08:36 CST    1.52   2.02    2  320    3  49.5  61.9 1019.5 -9.9 -9.999 -99.9 -99.99 -9.99
2019/11/17 08:42 CST    1.51   2.00    2  308    3  49.8  61.9 1019.5 -9.9 -9.999 -99.9 -99.99 -9.99
2019/11/17 08:48 CST    1.51   1.98    3  314    4  50.2  61.9 1019.5 -9.9 -9.999 -99.9 -99.99 -9.99
2019/11/17 08:54 CST    1.50   1.98    2  319    3  50.9  61.9 1019.5 -9.9 -9.999 -99.9 -99.99 -9.99
2019/11/17 09:00 CST    1.49   1.96    2  293    2  52.0  61.9 1019.3 -9.9 -9.999 -99.9 -99.99 -9.99
2019/11/17 09:06 CST    1.48   1.95    1  235    2  54.7  61.9 1019.3 -9.9 -9.999 -99.9 -99.99 -9.99
2019/11/17 09:12 CST    1.47   1.95    0  190    1  54.9  61.9 1019.3 -9.9 -9.999 -99.9 -99.99 -9.99
2019/11/17 09:18 CST    1.47   1.91    0  344    2  55.6  61.7 1019.3 -9.9 -9.999 -99.9 -99.99 -9.99
2019/11/17 09:24 CST    1.46   1.90    2   50    2  54.7  61.7 1019.3 -9.9 -9.999 -99.9 -99.99 -9.99
2019/11/17 09:30 CST    1.45   1.88    1   32    2  55.0  61.7 1019.3 -9.9 -9.999 -99.9 -99.99 -9.99
2019/11/17 09:36 CST    1.44   1.87    2   42    3  55.8  61.7 1019.3 -9.9 -9.999 -99.9 -99.99 -9.99
2019/11/17 09:42 CST    1.42   1.86    1   82    2  56.5  61.7 1019.2 -9.9 -9.999 -99.9 -99.99 -9.99
2019/11/17 09:48 CST    1.41   1.82    2   16    2  56.1  61.7 1019.2 -9.9 -9.999 -99.9 -99.99 -9.99
2019/11/17 09:54 CST    1.40   1.80    1   13    2  56.8  61.7 1019.2 -9.9 -9.999 -99.9 -99.99 -9.99
2019/11/17 10:00 CST    1.39   1.78    1   93    2  57.7  61.7 1019.1 -9.9 -9.999 -99.9 -99.99 -9.99
2019/11/17 10:06 CST    1.37   1.78    1   65    2  58.3  61.7 1019.0 -9.9 -9.999 -99.9 -99.99 -9.99
2019/11/17 10:12 CST    1.36   1.75    2   72    4  58.3  61.7 1019.0 -9.9 -9.999 -99.9 -99.99 -9.99
2019/11/17 10:18 CST    1.35   1.75    0  101    3  59.0  61.7 1018.8 -9.9 -9.999 -99.9 -99.99 -9.99
2019/11/17 10:24 CST    1.33   1.78    2   69    3  58.5  61.7 1018.8 -9.9 -9.999 -99.9 -99.99 -9.99
2019/11/17 10:30 CST    1.32   1.71    2   88    3  58.5  61.7 1018.6 -9.9 -9.999 -99.9 -99.99 -9.99
2019/11/17 10:36 CST    1.30   1.67    1   38    3  59.5  61.7 1018.5 -9.9 -9.999 -99.9 -99.99 -9.99
2019/11/17 10:42 CST    1.28   1.65    2   15    4  59.4  61.7 1018.6 -9.9 -9.999 -99.9 -99.99 -9.99
2019/11/17 10:48 CST    1.27   1.63    2   18    4  59.5  61.7 1018.5 -9.9 -9.999 -99.9 -99.99 -9.99
2019/11/17 10:54 CST    1.25   1.61    1  341    4  60.4  61.7 1018.4 -9.9 -9.999 -99.9 -99.99 -9.99
2019/11/17 11:00 CST    1.23   1.58    3   43    5  61.0  61.7 1018.3 -9.9 -9.999 -99.9 -99.99 -9.99
2019/11/17 11:06 CST    1.22   1.53    1   12    4  61.0  61.7 1018.2 -9.9 -9.999 -99.9 -99.99 -9.99
2019/11/17 11:12 CST    1.20   1.48    2  356    3  61.3  61.7 1018.1 -9.9 -9.999 -99.9 -99.99 -9.99
2019/11/17 11:18 CST    1.18   1.48    2  339    3  61.2  61.7 1018.0 -9.9 -9.999 -99.9 -99.99 -9.99
2019/11/17 11:24 CST    1.16   1.43    0  284    3  63.0  61.7 1018.0 -9.9 -9.999 -99.9 -99.99 -9.99
2019/11/17 11:30 CST    1.14   1.42    1   61    2  63.5  61.7 1018.0 -9.9 -9.999 -99.9 -99.99 -9.99
2019/11/17 11:36 CST    1.12   1.43    2  208    3  62.2  61.7 1017.8 -9.9 -9.999 -99.9 -99.99 -9.99
2019/11/17 11:42 CST    1.10   1.41    1  347    2  63.1  61.7 1017.8 -9.9 -9.999 -99.9 -99.99 -9.99
2019/11/17 11:48 CST    1.08   1.38    1  354    3  63.1  61.7 1017.8 -9.9 -9.999 -99.9 -99.99 -9.99
2019/11/17 11:54 CST    1.06   1.35    2  121    3  63.1  61.7 1017.5 -9.9 -9.999 -99.9 -99.99 -9.99
2019/11/17 12:00 CST    1.04   1.33    1  213    2  64.2  61.7 1017.4 -9.9 -9.999 -99.9 -99.99 -9.99
2019/11/17 12:06 CST    1.02   1.28    1  223    2  64.6  61.7 1017.3 -9.9 -9.999 -99.9 -99.99 -9.99
2019/11/17 12:12 CST    1.00   1.28    0  221    2  65.3  61.7 1017.3 -9.9 -9.999 -99.9 -99.99 -9.99
2019/11/17 12:18 CST    0.97   1.23    2  294    4  65.5  61.7 1017.2 -9.9 -9.999 -99.9 -99.99 -9.99
2019/11/17 12:24 CST    0.95   1.17    2  287    4  66.0  61.7 1017.0 -9.9 -9.999 -99.9 -99.99 -9.99
2019/11/17 12:30 CST    0.93   1.17    2  320    4  64.6  61.9 1016.9 -9.9 -9.999 -99.9 -99.99 -9.99
2019/11/17 12:36 CST    0.90   1.15    2  307    3  65.8  61.9 1016.8 -9.9 -9.999 -99.9 -99.99 -9.99
2019/11/17 12:42 CST    0.88   1.13    1  287    3  66.2  61.9 1016.6 -9.9 -9.999 -99.9 -99.99 -9.99
2019/11/17 12:48 CST    0.85   1.10    0    2    4  65.8  61.9 1016.5 -9.9 -9.999 -99.9 -99.99 -9.99
2019/11/17 12:54 CST    0.83   1.06    0  265    1  67.8  61.9 1016.4 -9.9 -9.999 -99.9 -99.99 -9.99
2019/11/17 13:00 CST    0.80   1.04    3  321    4  65.3  62.1 1016.3 -9.9 -9.999 -99.9 -99.99 -9.99
2019/11/17 13:06 CST    0.77   1.03    3  315    4  65.7  62.1 1016.4 -9.9 -9.999 -99.9 -99.99 -9.99
2019/11/17 13:12 CST    0.75   1.01    3  333    4  65.1  62.1 1016.3 -9.9 -9.999 -99.9 -99.99 -9.99
2019/11/17 13:18 CST    0.72   0.99    3  350    5  65.5  62.1 1016.2 -9.9 -9.999 -99.9 -99.99 -9.99
2019/11/17 13:24 CST    0.69   0.96    2   12    4  66.0  62.2 1016.2 -9.9 -9.999 -99.9 -99.99 -9.99
2019/11/17 13:30 CST    0.67   0.94    1  317    3  68.0  62.2 1016.1 -9.9 -9.999 -99.9 -99.99 -9.99
2019/11/17 13:36 CST    0.64   0.90    3  294    5  66.7  62.4 1015.9 -9.9 -9.999 -99.9 -99.99 -9.99
2019/11/17 13:42 CST    0.61   0.89    1  303    2  67.5  62.4 1015.9 -9.9 -9.999 -99.9 -99.99 -9.99
2019/11/17 13:48 CST    0.58   0.87    3  276    6  66.9  62.4 1015.8 -9.9 -9.999 -99.9 -99.99 -9.99
2019/11/17 13:54 CST    0.56   0.85    1  234    4  66.9  62.6 1015.5 -9.9 -9.999 -99.9 -99.99 -9.99
2019/11/17 14:00 CST    0.53   0.85    2  247    4  67.5  62.6 1015.4 -9.9 -9.999 -99.9 -99.99 -9.99
2019/11/17 14:06 CST    0.50   0.83    1  234    3  67.6  62.6 1015.5 -9.9 -9.999 -99.9 -99.99 -9.99
2019/11/17 14:12 CST    0.48   0.81    1  293    2  68.5  62.8 1015.3 -9.9 -9.999 -99.9 -99.99 -9.99
2019/11/17 14:18 CST    0.45   0.78    2  237    4  67.1  62.8 1015.1 -9.9 -9.999 -99.9 -99.99 -9.99
2019/11/17 14:24 CST    0.42   0.76    2  241    3  68.0  62.8 1015.1 -9.9 -9.999 -99.9 -99.99 -9.99
2019/11/17 14:30 CST    0.40   0.74    0  167    2  68.7  63.0 1014.9 -9.9 -9.999 -99.9 -99.99 -9.99
2019/11/17 14:36 CST    0.37   0.72    2  299    2  68.2  63.0 1015.0 -9.9 -9.999 -99.9 -99.99 -9.99
2019/11/17 14:42 CST    0.35   0.72    2  257    5  67.3  63.0 1015.1 -9.9 -9.999 -99.9 -99.99 -9.99
2019/11/17 14:48 CST    0.32   0.68    3  298    4  67.1  63.0 1015.2 -9.9 -9.999 -99.9 -99.99 -9.99
2019/11/17 14:54 CST    0.30   0.65    3  278    5  67.1  63.1 1015.3 -9.9 -9.999 -99.9 -99.99 -9.99
2019/11/17 15:00 CST    0.28   0.65    4  315    5  67.1  63.1 1015.2 -9.9 -9.999 -99.9 -99.99 -9.99
2019/11/17 15:06 CST    0.25   0.64    2  265    7  67.1  63.1 1015.3 -9.9 -9.999 -99.9 -99.99 -9.99
2019/11/17 15:12 CST    0.23   0.62    4  255    7  67.1  63.3 1015.2 -9.9 -9.999 -99.9 -99.99 -9.99
2019/11/17 15:18 CST    0.21   0.61    4  255    7  66.9  63.3 1015.2 -9.9 -9.999 -99.9 -99.99 -9.99
2019/11/17 15:24 CST    0.19   0.59    3  255    5  67.1  63.3 1015.1 -9.9 -9.999 -99.9 -99.99 -9.99
2019/11/17 15:30 CST    0.16   0.57    3  267    5  67.1  63.3 1015.1 -9.9 -9.999 -99.9 -99.99 -9.99
2019/11/17 15:36 CST    0.14   0.55    3  267    6  67.1  63.3 1015.1 -9.9 -9.999 -99.9 -99.99 -9.99
2019/11/17 15:42 CST    0.12   0.55    3  257    4  66.9  63.3 1015.2 -9.9 -9.999 -99.9 -99.99 -9.99
2019/11/17 15:48 CST    0.10   0.53    1  257    4  66.7  63.3 1015.1 -9.9 -9.999 -99.9 -99.99 -9.99
2019/11/17 15:54 CST    0.08   0.52    2  266    4  66.6  63.3 1015.0 -9.9 -9.999 -99.9 -99.99 -9.99
2019/11/17 16:00 CST    0.07   0.48    3  273    4  66.7  63.5 1015.0 -9.9 -9.999 -99.9 -99.99 -9.99
2019/11/17 16:06 CST    0.05   0.46    2  271    4  66.7  63.5 1015.0 -9.9 -9.999 -99.9 -99.99 -9.99
2019/11/17 16:12 CST    0.03   0.45    2  254    4  66.6  63.5 1015.0 -9.9 -9.999 -99.9 -99.99 -9.99
2019/11/17 16:18 CST    0.01   0.43    2  282    4  66.6  63.5 1015.0 -9.9 -9.999 -99.9 -99.99 -9.99
2019/11/17 16:24 CST   -0.00   0.40    3  307    4  66.6  63.5 1014.9 -9.9 -9.999 -99.9 -99.99 -9.99
2019/11/17 16:30 CST   -0.02   0.41    3  298    4  66.6  63.5 1014.9 -9.9 -9.999 -99.9 -99.99 -9.99
2019/11/17 16:36 CST   -0.03   0.39    3  298    4  66.6  63.5 1014.9 -9.9 -9.999 -99.9 -99.99 -9.99
2019/11/17 16:42 CST   -0.05   0.38    2  297    3  66.6  63.5 1014.9 -9.9 -9.999 -99.9 -99.99 -9.99
2019/11/17 16:48 CST   -0.06   0.39    2  286    3  66.4  63.5 1015.0 -9.9 -9.999 -99.9 -99.99 -9.99
2019/11/17 16:54 CST   -0.07   0.36    2  281    4  66.4  63.5 1015.1 -9.9 -9.999 -99.9 -99.99 -9.99
2019/11/17 17:00 CST   -0.08   0.34    1  279    3  66.4  63.5 1015.0 -9.9 -9.999 -99.9 -99.99 -9.99
2019/11/17 17:06 CST   -0.09   0.35    1  275    2  66.2  63.7 1015.1 -9.9 -9.999 -99.9 -99.99 -9.99
2019/11/17 17:12 CST   -0.10   0.32    1  277    3  66.0  63.7 1015.1 -9.9 -9.999 -99.9 -99.99 -9.99
2019/11/17 17:18 CST   -0.11   0.32    1  265    2  65.8  63.7 1015.1 -9.9 -9.999 -99.9 -99.99 -9.99
2019/11/17 17:24 CST   -0.11   0.31    0  272    2  65.7  63.7 1015.2 -9.9 -9.999 -99.9 -99.99 -9.99
2019/11/17 17:30 CST   -0.12   0.28    1  264    2  65.5  63.7 1015.3 -9.9 -9.999 -99.9 -99.99 -9.99
2019/11/17 17:36 CST   -0.12   0.29    1  263    1  65.5  63.7 1015.3 -9.9 -9.999 -99.9 -99.99 -9.99
2019/11/17 17:42 CST   -0.13   0.30    1  271    2  65.3  63.7 1015.3 -9.9 -9.999 -99.9 -99.99 -9.99
2019/11/17 17:48 CST   -0.13   0.28    1  263    2  65.3  63.7 1015.3 -9.9 -9.999 -99.9 -99.99 -9.99
2019/11/17 17:54 CST   -0.13   0.28    2  267    3  65.1  63.7 1015.3 -9.9 -9.999 -99.9 -99.99 -9.99
2019/11/17 18:00 CST   -0.13   0.28    1  273    3  64.9  63.7 1015.3 -9.9 -9.999 -99.9 -99.99 -9.99
2019/11/17 18:06 CST   -0.13   0.28    2  270    2  64.9  63.7 1015.3 -9.9 -9.999 -99.9 -99.99 -9.99
2019/11/17 18:12 CST   -0.13   0.29    2  275    2  64.9  63.7 1015.4 -9.9 -9.999 -99.9 -99.99 -9.99
2019/11/17 18:18 CST   -0.13   0.28    1  204    2  64.6  63.7 1015.4 -9.9 -9.999 -99.9 -99.99 -9.99
2019/11/17 18:24 CST   -0.13   0.32    3  185    5  63.3  63.7 1015.5 -9.9 -9.999 -99.9 -99.99 -9.99
2019/11/17 18:30 CST   -0.12   0.32    4  175    5  62.8  63.7 1015.6 -9.9 -9.999 -99.9 -99.99 -9.99
2019/11/17 18:36 CST   -0.12   0.29    3  213    5  62.6  63.7 1015.7 -9.9 -9.999 -99.9 -99.99 -9.99
2019/11/17 18:42 CST   -0.11   0.30    4  195    6  62.6  63.7 1015.8 -9.9 -9.999 -99.9 -99.99 -9.99
2019/11/17 18:48 CST   -0.10   0.31    3  200    7  62.2  63.7 1015.9 -9.9 -9.999 -99.9 -99.99 -9.99
2019/11/17 18:54 CST   -0.09   0.34    2  216    6  62.2  63.7 1016.0 -9.9 -9.999 -99.9 -99.99 -9.99
2019/11/17 19:00 CST   -0.09   0.32    2  208    3  62.1  63.9 1016.1 -9.9 -9.999 -99.9 -99.99 -9.99
2019/11/17 19:06 CST   -0.07   0.35    3  194    5  61.9  63.9 1016.0 -9.9 -9.999 -99.9 -99.99 -9.99
2019/11/17 19:12 CST   -0.06   0.34    4  209    6  62.2  63.9 1016.1 -9.9 -9.999 -99.9 -99.99 -9.99
2019/11/17 19:18 CST   -0.05   0.38    4  206    6  62.1  63.9 1016.0 -9.9 -9.999 -99.9 -99.99 -9.99
2019/11/17 19:24 CST   -0.04   0.39    4  211    6  62.1  63.9 1015.9 -9.9 -9.999 -99.9 -99.99 -9.99
2019/11/17 19:30 CST   -0.02   0.39    4  211    6  62.1  63.9 1015.9 -9.9 -9.999 -99.9 -99.99 -9.99
2019/11/17 19:36 CST   -0.00   0.44    4  207    6  61.9  63.9 1015.9 -9.9 -9.999 -99.9 -99.99 -9.99
2019/11/17 19:42 CST    0.02   0.47    4  205    6  61.7  63.9 1015.9 -9.9 -9.999 -99.9 -99.99 -9.99
2019/11/17 19:48 CST    0.03   0.45    4  206    5  61.7  63.9 1015.9 -9.9 -9.999 -99.9 -99.99 -9.99
2019/11/17 19:54 CST    0.06   0.48    2  205    4  61.7  63.9 1016.0 -9.9 -9.999 -99.9 -99.99 -9.99
2019/11/17 20:00 CST    0.08   0.50    3  210    5  61.7  63.9 1015.9 -9.9 -9.999 -99.9 -99.99 -9.99
2019/11/17 20:06 CST    0.10   0.50    2  206    5  61.5  63.9 1016.1 -9.9 -9.999 -99.9 -99.99 -9.99
2019/11/17 20:12 CST    0.13   0.54    3  206    6  61.3  63.9 1016.1 -9.9 -9.999 -99.9 -99.99 -9.99
2019/11/17 20:18 CST    0.15   0.57    4  204    6  61.2  63.9 1016.0 -9.9 -9.999 -99.9 -99.99 -9.99
2019/11/17 20:24 CST    0.18   0.59    4  208    6  60.8  63.9 1016.0 -9.9 -9.999 -99.9 -99.99 -9.99
2019/11/17 20:30 CST    0.21   0.62    3  203    5  60.6  63.9 1016.1 -9.9 -9.999 -99.9 -99.99 -9.99
2019/11/17 20:36 CST    0.24   0.64    3  199    5  60.4  63.9 1016.1 -9.9 -9.999 -99.9 -99.99 -9.99
2019/11/17 20:42 CST    0.27   0.68    4  205    5  60.3  63.9 1016.1 -9.9 -9.999 -99.9 -99.99 -9.99
2019/11/17 20:48 CST    0.30   0.72    2  200    4  60.1  63.7 1016.1 -9.9 -9.999 -99.9 -99.99 -9.99
2019/11/17 20:54 CST    0.33   0.75    3  212    5  59.9  63.7 1016.0 -9.9 -9.999 -99.9 -99.99 -9.99
2019/11/17 21:00 CST    0.37   0.79    3  205    5  59.7  63.7 1016.0 -9.9 -9.999 -99.9 -99.99 -9.99
2019/11/17 21:06 CST    0.40   0.83    3  202    5  59.5  63.7 1016.0 -9.9 -9.999 -99.9 -99.99 -9.99
2019/11/17 21:12 CST    0.44   0.86    3  202    4  59.5  63.7 1016.0 -9.9 -9.999 -99.9 -99.99 -9.99
2019/11/17 21:18 CST    0.48   0.90    1  197    5  59.4  63.7 1016.0 -9.9 -9.999 -99.9 -99.99 -9.99
2019/11/17 21:24 CST    0.51   0.95    1  190    3  59.4  63.5 1016.1 -9.9 -9.999 -99.9 -99.99 -9.99
2019/11/17 21:30 CST    0.55   0.97    3  199    5  59.4  63.5 1016.1 -9.9 -9.999 -99.9 -99.99 -9.99
2019/11/17 21:36 CST    0.59   1.02    4  200    5  59.2  63.5 1016.0 -9.9 -9.999 -99.9 -99.99 -9.99
2019/11/17 21:42 CST    0.63   1.06    4  203    5  59.0  63.5 1016.0 -9.9 -9.999 -99.9 -99.99 -9.99
2019/11/17 21:48 CST    0.66   1.06    4  203    6  58.8  63.5 1016.1 -9.9 -9.999 -99.9 -99.99 -9.99
2019/11/17 21:54 CST    0.70   1.10    3  204    6  58.6  63.5 1016.0 -9.9 -9.999 -99.9 -99.99 -9.99
2019/11/17 22:00 CST    0.74   1.15    2  206    6  58.5  63.5 1016.0 -9.9 -9.999 -99.9 -99.99 -9.99
2019/11/17 22:06 CST    0.78   1.18    2  195    4  58.5  63.3 1016.0 -9.9 -9.999 -99.9 -99.99 -9.99
2019/11/17 22:12 CST    0.82   1.23    1  196    3  58.5  63.3 1016.0 -9.9 -9.999 -99.9 -99.99 -9.99
2019/11/17 22:18 CST    0.86   1.29    1  190    2  58.3  63.3 1016.0 -9.9 -9.999 -99.9 -99.99 -9.99
2019/11/17 22:24 CST    0.89   1.31    1  189    4  58.1  63.3 1016.1 -9.9 -9.999 -99.9 -99.99 -9.99
2019/11/17 22:30 CST    0.93   1.36    1  237    2  58.1  63.3 1016.1 -9.9 -9.999 -99.9 -99.99 -9.99
2019/11/17 22:36 CST    0.97   1.39    1  223    2  58.1  63.3 1016.1 -9.9 -9.999 -99.9 -99.99 -9.99
2019/11/17 22:42 CST    1.01   1.41    1  201    2  57.9  63.3 1015.9 -9.9 -9.999 -99.9 -99.99 -9.99
2019/11/17 22:48 CST    1.04   1.44    0  162    2  57.9  63.1 1015.9 -9.9 -9.999 -99.9 -99.99 -9.99
2019/11/17 22:54 CST    1.08   1.49    2  201    3  57.7  63.1 1015.8 -9.9 -9.999 -99.9 -99.99 -9.99
2019/11/17 23:00 CST    1.12   1.51    1  204    2  57.7  63.1 1015.8 -9.9 -9.999 -99.9 -99.99 -9.99
2019/11/17 23:06 CST    1.15   1.54    1  199    2  57.6  63.1 1015.8 -9.9 -9.999 -99.9 -99.99 -9.99
2019/11/17 23:12 CST    1.19   1.54    1  227    2  57.6  63.1 1015.7 -9.9 -9.999 -99.9 -99.99 -9.99
2019/11/17 23:18 CST    1.22   1.59    1  186    2  57.6  63.1 1015.6 -9.9 -9.999 -99.9 -99.99 -9.99
2019/11/17 23:24 CST    1.26   1.62    0  171    2  57.4  63.1 1015.6 -9.9 -9.999 -99.9 -99.99 -9.99
2019/11/17 23:30 CST    1.29   1.66    0  200    1  57.4  63.1 1015.6 -9.9 -9.999 -99.9 -99.99 -9.99
2019/11/17 23:36 CST    1.33   1.67    1  245    1  57.0  63.0 1015.6 -9.9 -9.999 -99.9 -99.99 -9.99
2019/11/17 23:42 CST    1.36   1.69    1  260    3  56.8  63.0 1015.8 -9.9 -9.999 -99.9 -99.99 -9.99
2019/11/17 23:48 CST    1.39   1.72    2  276    2  56.7  63.0 1015.7 -9.9 -9.999 -99.9 -99.99 -9.99
2019/11/17 23:54 CST    1.42   1.73    1  267    2  56.3  63.0 1015.7 -9.9 -9.999 -99.9 -99.99 -9.99
2019/11/18 00:00 CST    1.45   1.77    1  263    2  56.1  63.0 1015.7 -9.9 -9.999 -99.9 -99.99 -9.99
2019/11/18 00:06 CST    1.48   1.76    2  270    3  55.9  63.0 1015.7 -9.9 -9.999 -99.9 -99.99 -9.99
2019/11/18 00:12 CST    1.51   1.80    2  283    3  55.8  63.0 1015.6 -9.9 -9.999 -99.9 -99.99 -9.99
2019/11/18 00:18 CST    1.54   1.82    2  271    3  55.8  63.0 1015.5 -9.9 -9.999 -99.9 -99.99 -9.99
2019/11/18 00:24 CST    1.57   1.84    2  264    3  55.6  63.0 1015.5 -9.9 -9.999 -99.9 -99.99 -9.99
2019/11/18 00:30 CST    1.59   1.89    1  265    2  55.6  63.0 1015.5 -9.9 -9.999 -99.9 -99.99 -9.99
2019/11/18 00:36 CST    1.62   1.88    2  259    3  55.8  63.0 1015.5 -9.9 -9.999 -99.9 -99.99 -9.99
2019/11/18 00:42 CST    1.64   1.89    2  257    3  55.8  63.0 1015.5 -9.9 -9.999 -99.9 -99.99 -9.99
2019/11/18 00:48 CST    1.67   1.92    2  266    3  55.8  63.0 1015.5 -9.9 -9.999 -99.9 -99.99 -9.99
2019/11/18 00:54 CST    1.69   1.93    2  268    3  55.8  63.0 1015.5 -9.9 -9.999 -99.9 -99.99 -9.99
2019/11/18 01:00 CST    1.71   1.92    2  272    4  55.6  63.0 1015.5 -9.9 -9.999 -99.9 -99.99 -9.99
2019/11/18 01:06 CST    1.73   1.94    2  271    3  55.2  63.0 1015.5 -9.9 -9.999 -99.9 -99.99 -9.99
2019/11/18 01:12 CST    1.75   1.94    2  271    3  55.2  63.0 1015.4 -9.9 -9.999 -99.9 -99.99 -9.99
2019/11/18 01:18 CST    1.76 -99.99 -999 -999 -999 -99.9 -99.9 -999.9 -9.9 -9.999 -99.9 -99.99 -9.99
2019/11/18 01:24 CST    1.78 -99.99 -999 -999 -999 -99.9 -99.9 -999.9 -9.9 -9.999 -99.9 -99.99 -9.99